Time,TemperatureF,DewpointF,PressureIn,WindDirection,WindDirectionDegrees,WindSpeedMPH,WindSpeedGustMPH,Humidity,HourlyPrecipIn,Conditions,Clouds,dailyrainin,SoftwareType,DateUTC
2013-03-30 00:00:00,58.6,58.1,29.77,WNW,292,3.6,3.6,98,0.00,CLR,,0.00,WeatherDisplay:10.37,2013-03-29 22:00:00,
2013-03-30 00:01:00,58.6,58.1,29.77,WNW,292,4.6,4.6,98,0.00,CLR,,0.00,WeatherDisplay:10.37,2013-03-29 22:01:00,
2013-03-30 00:02:00,58.6,58.1,29.77,WNW,292,4.6,4.6,98,0.00,CLR,,0.00,WeatherDisplay:10.37,2013-03-29 22:02:00,
2013-03-30 00:04:00,58.6,58.4,29.77,WNW,292,3.5,3.5,99,0.00,CLR,,0.00,WeatherDisplay:10.37,2013-03-29 22:04:00,
2013-03-30 00:06:00,58.6,58.4,29.77,WSW,248,2.6,2.6,99,0.00,CLR,,0.00,WeatherDisplay:10.37,2013-03-29 22:06:00,
2013-03-30 00:07:00,58.6,58.4,29.77,West,270,3.5,3.5,99,0.00,CLR,,0.00,WeatherDisplay:10.37,2013-03-29 22:07:00,
2013-03-30 00:09:00,58.6,58.4,29.77,West,270,2.3,2.3,99,0.00,CLR,,0.00,WeatherDisplay:10.37,2013-03-29 22:09:00,
2013-03-30 00:11:00,58.6,58.4,29.77,WSW,248,2.3,2.3,99,0.00,CLR,,0.00,WeatherDisplay:10.37,2013-03-29 22:11:00,
2013-03-30 00:12:00,58.6,58.4,29.77,WSW,248,2.3,2.3,99,0.00,CLR,,0.00,WeatherDisplay:10.37,2013-03-29 22:12:00,
2013-03-30 00:14:00,58.6,58.4,29.77,WSW,248,1.6,1.6,99,0.00,CLR,,0.00,WeatherDisplay:10.37,2013-03-29 22:14:00,
2013-03-30 00:17:00,58.6,58.1,29.77,WSW,248,2.3,2.3,98,0.00,CLR,,0.00,WeatherDisplay:10.37,2013-03-29 22:17:00,
2013-03-30 00:18:00,58.6,58.1,29.77,WSW,248,2.3,2.3,98,0.00,CLR,,0.00,WeatherDisplay:10.37,2013-03-29 22:18:00,
2013-03-30 00:19:00,58.5,57.9,29.77,WSW,248,0.9,0.0,98,0.00,CLR,,0.00,WeatherDisplay:10.37,2013-03-29 22:19:00,
2013-03-30 00:22:00,58.5,57.9,29.77,SW,225,1.2,1.2,98,0.00,CLR,,0.00,WeatherDisplay:10.37,2013-03-29 22:22:00,
2013-03-30 00:23:00,58.5,57.9,29.77,SW,225,1.2,1.2,98,0.00,CLR,,0.00,WeatherDisplay:10.37,2013-03-29 22:23:00,
2013-03-30 00:24:00,58.5,57.9,29.77,SE,135,1.6,1.6,98,0.00,CLR,,0.00,WeatherDisplay:10.37,2013-03-29 22:24:00,
2013-03-30 00:27:00,58.5,57.9,29.77,ESE,112,2.3,0.0,98,0.00,CLR,,0.00,WeatherDisplay:10.37,2013-03-29 22:27:00,
2013-03-30 00:28:00,58.5,57.9,29.77,ESE,112,2.3,0.0,98,0.00,CLR,,0.00,WeatherDisplay:10.37,2013-03-29 22:28:00,
2013-03-30 00:30:00,58.5,57.9,29.77,ESE,112,1.2,1.4,98,0.00,CLR,,0.00,WeatherDisplay:10.37,2013-03-29 22:30:00,
2013-03-30 00:33:00,58.5,58.2,29.77,ESE,112,1.2,0.0,99,0.00,CLR,,0.00,WeatherDisplay:10.37,2013-03-29 22:33:00,
2013-03-30 00:35:00,58.5,58.2,29.77,ESE,112,0.0,0.0,99,0.00,CLR,,0.00,WeatherDisplay:10.37,2013-03-29 22:35:00,
2013-03-30 00:38:00,58.5,58.2,29.77,ESE,112,0.0,0.0,99,0.00,CLR,,0.00,WeatherDisplay:10.37,2013-03-29 22:38:00,
2013-03-30 00:40:00,58.3,57.7,29.77,ESE,112,0.0,0.0,98,0.00,CLR,,0.00,WeatherDisplay:10.37,2013-03-29 22:40:00,
2013-03-30 00:43:00,58.3,57.7,29.77,ESE,112,0.0,0.0,98,0.00,CLR,,0.00,WeatherDisplay:10.37,2013-03-29 22:43:00,
2013-03-30 00:45:00,58.3,57.7,29.77,ESE,112,0.0,0.0,98,0.00,CLR,,0.00,WeatherDisplay:10.37,2013-03-29 22:45:00,
2013-03-30 00:48:00,58.3,58.0,29.77,ESE,112,0.0,0.0,99,0.00,CLR,,0.00,WeatherDisplay:10.37,2013-03-29 22:48:00,
2013-03-30 00:49:00,58.3,58.0,29.77,ESE,112,0.0,0.0,99,0.00,CLR,,0.00,WeatherDisplay:10.37,2013-03-29 22:49:00,
2013-03-30 00:50:00,58.3,58.0,29.77,ESE,112,0.0,0.0,99,0.00,CLR,,0.00,WeatherDisplay:10.37,2013-03-29 22:50:00,
2013-03-30 00:53:00,58.3,58.0,29.77,ESE,112,0.0,0.0,99,0.00,CLR,,0.00,WeatherDisplay:10.37,2013-03-29 22:53:00,
2013-03-30 00:54:00,58.3,58.0,29.77,ESE,112,0.0,0.0,99,0.00,CLR,,0.00,WeatherDisplay:10.37,2013-03-29 22:54:00,
2013-03-30 00:56:00,58.3,58.0,29.77,ESE,112,0.0,0.0,99,0.00,CLR,,0.00,WeatherDisplay:10.37,2013-03-29 22:56:00,
2013-03-30 00:58:00,58.3,58.0,29.77,SSE,158,1.6,0.0,99,0.00,CLR,,0.00,WeatherDisplay:10.37,2013-03-29 22:58:00,
2013-03-30 00:59:00,58.3,58.0,29.77,WSW,248,2.9,2.9,99,0.00,CLR,,0.00,WeatherDisplay:10.37,2013-03-29 22:59:00,
2013-03-30 01:01:00,58.3,58.0,29.77,WSW,248,2.6,2.6,99,0.00,CLR,,0.00,WeatherDisplay:10.37,2013-03-29 23:01:00,
2013-03-30 01:03:00,58.3,58.0,29.77,WSW,248,2.3,2.3,99,0.00,CLR,,0.00,WeatherDisplay:10.37,2013-03-29 23:03:00,
2013-03-30 01:04:00,58.3,58.0,29.77,WSW,248,2.3,2.3,99,0.00,CLR,,0.00,WeatherDisplay:10.37,2013-03-29 23:04:00,
2013-03-30 01:07:00,58.3,58.3,29.77,WSW,248,2.3,2.3,100,0.00,CLR,,0.00,WeatherDisplay:10.37,2013-03-29 23:07:00,
2013-03-30 01:08:00,58.3,58.3,29.77,WSW,248,2.3,2.3,100,0.00,CLR,,0.00,WeatherDisplay:10.37,2013-03-29 23:08:00,
2013-03-30 01:09:00,58.3,58.3,29.77,WSW,248,2.3,2.3,100,0.00,CLR,,0.00,WeatherDisplay:10.37,2013-03-29 23:09:00,
2013-03-30 01:12:00,58.3,58.3,29.77,WNW,292,1.2,0.0,100,0.00,CLR,,0.00,WeatherDisplay:10.37,2013-03-29 23:12:00,
2013-03-30 01:14:00,58.1,58.1,29.77,West,270,1.6,0.0,100,0.00,CLR,,0.00,WeatherDisplay:10.37,2013-03-29 23:14:00,
2013-03-30 01:17:00,58.1,58.1,29.77,West,270,1.2,0.0,100,0.00,CLR,,0.00,WeatherDisplay:10.37,2013-03-29 23:17:00,
2013-03-30 01:19:00,58.1,57.8,29.77,WNW,292,1.6,1.6,99,0.00,CLR,,0.00,WeatherDisplay:10.37,2013-03-29 23:19:00,
2013-03-30 01:23:00,58.1,57.8,29.77,WNW,292,1.2,0.0,99,0.00,CLR,,0.00,WeatherDisplay:10.37,2013-03-29 23:23:00,
2013-03-30 01:24:00,58.1,58.1,29.74,WNW,292,0.0,0.0,100,0.00,CLR,,0.00,WeatherDisplay:10.37,2013-03-29 23:24:00,
2013-03-30 01:28:00,58.1,58.1,29.74,WNW,292,2.3,2.3,100,0.00,CLR,,0.00,WeatherDisplay:10.37,2013-03-29 23:28:00,
2013-03-30 01:29:00,57.9,57.9,29.74,NE,45,2.4,2.4,100,0.00,CLR,,0.00,WeatherDisplay:10.37,2013-03-29 23:29:00,
2013-03-30 01:30:00,57.9,57.9,29.74,NNE,22,3.6,3.6,100,0.00,CLR,,0.00,WeatherDisplay:10.37,2013-03-29 23:30:00,
2013-03-30 01:33:00,58.1,58.1,29.74,NE,45,4.6,4.7,100,0.00,CLR,,0.00,WeatherDisplay:10.37,2013-03-29 23:33:00,
2013-03-30 01:34:00,58.1,58.1,29.74,NE,45,3.5,0.0,100,0.00,CLR,,0.00,WeatherDisplay:10.37,2013-03-29 23:34:00,
2013-03-30 01:35:00,57.9,57.9,29.74,WNW,292,3.5,0.0,100,0.00,CLR,,0.00,WeatherDisplay:10.37,2013-03-29 23:35:00,
2013-03-30 01:38:00,57.9,57.9,29.74,WNW,292,1.2,1.2,100,0.00,CLR,,0.00,WeatherDisplay:10.37,2013-03-29 23:38:00,
2013-03-30 01:39:00,57.9,57.9,29.74,WSW,248,1.4,1.4,100,0.00,CLR,,0.00,WeatherDisplay:10.37,2013-03-29 23:39:00,
2013-03-30 01:40:00,57.9,57.9,29.74,WSW,248,1.4,1.4,100,0.00,CLR,,0.00,WeatherDisplay:10.37,2013-03-29 23:40:00,
2013-03-30 01:43:00,57.9,57.9,29.74,WSW,248,2.0,0.0,100,0.00,CLR,,0.00,WeatherDisplay:10.37,2013-03-29 23:43:00,
2013-03-30 01:44:00,57.9,57.9,29.74,WSW,248,2.3,2.3,100,0.00,CLR,,0.00,WeatherDisplay:10.37,2013-03-29 23:44:00,
2013-03-30 01:45:00,57.9,57.9,29.74,WSW,248,2.3,2.3,100,0.00,CLR,,0.00,WeatherDisplay:10.37,2013-03-29 23:45:00,
2013-03-30 01:49:00,57.7,57.7,29.74,WSW,248,1.6,0.0,100,0.00,CLR,,0.00,WeatherDisplay:10.37,2013-03-29 23:49:00,
2013-03-30 01:50:00,57.7,57.7,29.74,WSW,248,1.2,1.4,100,0.00,CLR,,0.00,WeatherDisplay:10.37,2013-03-29 23:50:00,
2013-03-30 01:54:00,57.7,57.7,29.71,West,270,2.3,2.3,100,0.00,CLR,,0.00,WeatherDisplay:10.37,2013-03-29 23:54:00,
2013-03-30 01:55:00,57.7,57.7,29.71,West,270,2.3,2.3,100,0.00,CLR,,0.00,WeatherDisplay:10.37,2013-03-29 23:55:00,
2013-03-30 01:59:00,57.7,57.7,29.71,West,270,0.0,0.0,100,0.00,CLR,,0.00,WeatherDisplay:10.37,2013-03-29 23:59:00,
2013-03-30 02:00:00,57.7,57.7,29.71,West,270,0.0,0.0,100,0.00,CLR,,0.00,WeatherDisplay:10.37,2013-03-30 00:00:00,
2013-03-30 02:04:00,57.6,57.6,29.71,West,270,1.2,0.0,100,0.00,CLR,,0.00,WeatherDisplay:10.37,2013-03-30 00:04:00,
2013-03-30 02:05:00,57.6,57.6,29.71,West,270,1.2,0.0,100,0.00,CLR,,0.00,WeatherDisplay:10.37,2013-03-30 00:05:00,
2013-03-30 02:09:00,57.4,57.4,29.74,North,0,2.3,2.3,100,0.00,CLR,,0.00,WeatherDisplay:10.37,2013-03-30 00:09:00,
2013-03-30 02:10:00,57.4,57.4,29.74,North,0,2.3,2.3,100,0.00,CLR,,0.00,WeatherDisplay:10.37,2013-03-30 00:10:00,
2013-03-30 02:11:00,57.4,57.4,29.74,North,0,1.2,1.2,100,0.00,CLR,,0.00,WeatherDisplay:10.37,2013-03-30 00:11:00,
2013-03-30 02:14:00,57.2,57.2,29.74,NE,45,1.2,1.2,100,0.00,CLR,,0.00,WeatherDisplay:10.37,2013-03-30 00:14:00,
2013-03-30 02:15:00,57.2,57.2,29.74,ENE,68,1.2,1.2,100,0.00,CLR,,0.00,WeatherDisplay:10.37,2013-03-30 00:15:00,
2013-03-30 02:16:00,57.2,57.2,29.74,ENE,68,2.0,2.0,100,0.00,CLR,,0.00,WeatherDisplay:10.37,2013-03-30 00:16:00,
2013-03-30 02:20:00,57.2,57.2,29.74,ENE,68,1.2,1.2,100,0.00,CLR,,0.00,WeatherDisplay:10.37,2013-03-30 00:20:00,
2013-03-30 02:22:00,57.2,57.2,29.74,ENE,68,1.2,0.0,100,0.00,CLR,,0.00,WeatherDisplay:10.37,2013-03-30 00:22:00,
2013-03-30 02:25:00,57.2,57.2,29.74,ENE,68,0.0,0.0,100,0.00,CLR,,0.00,WeatherDisplay:10.37,2013-03-30 00:25:00,
2013-03-30 02:27:00,57.2,57.2,29.74,ENE,68,1.2,0.0,100,0.00,CLR,,0.00,WeatherDisplay:10.37,2013-03-30 00:27:00,
2013-03-30 02:30:00,57.2,57.2,29.74,ENE,68,1.4,0.0,100,0.00,CLR,,0.00,WeatherDisplay:10.37,2013-03-30 00:30:00,
2013-03-30 02:32:00,57.2,57.2,29.74,ENE,68,2.4,0.0,100,0.00,CLR,,0.00,WeatherDisplay:10.37,2013-03-30 00:32:00,
2013-03-30 02:35:00,57.2,56.9,29.74,ENE,67,2.0,3.0,99,0.00,CLR,,0.00,WeatherDisplay:10.37,2013-03-30 00:35:00,
2013-03-30 02:36:00,57.2,56.9,29.74,NE,45,2.4,2.4,99,0.00,CLR,,0.00,WeatherDisplay:10.37,2013-03-30 00:36:00,
2013-03-30 02:38:00,57.2,56.9,29.74,NE,45,2.3,2.4,99,0.00,CLR,,0.00,WeatherDisplay:10.37,2013-03-30 00:38:00,
2013-03-30 02:40:00,57.2,56.9,29.74,ENE,57,3.0,5.0,99,0.00,CLR,,0.00,WeatherDisplay:10.37,2013-03-30 00:40:00,
2013-03-30 02:41:00,57.2,56.9,29.74,NE,45,4.6,4.6,99,0.00,CLR,,0.00,WeatherDisplay:10.37,2013-03-30 00:41:00,
2013-03-30 02:43:00,57.2,56.6,29.74,ENE,68,3.5,3.5,98,0.00,CLR,,0.00,WeatherDisplay:10.37,2013-03-30 00:43:00,
2013-03-30 02:45:00,57.2,56.6,29.74,NNE,22,2.3,2.3,98,0.00,CLR,,0.00,WeatherDisplay:10.37,2013-03-30 00:45:00,
2013-03-30 02:46:00,57.2,56.6,29.74,NNE,22,0.0,0.0,98,0.00,CLR,,0.00,WeatherDisplay:10.37,2013-03-30 00:46:00,
2013-03-30 02:48:00,57.2,56.4,29.74,NNE,22,0.0,0.0,97,0.00,CLR,,0.00,WeatherDisplay:10.37,2013-03-30 00:48:00,
2013-03-30 02:50:00,57.2,56.4,29.74,NNE,22,0.0,0.0,97,0.00,CLR,,0.00,WeatherDisplay:10.37,2013-03-30 00:50:00,
2013-03-30 02:51:00,57.2,56.4,29.74,NNE,22,0.0,0.0,97,0.00,CLR,,0.00,WeatherDisplay:10.37,2013-03-30 00:51:00,
2013-03-30 02:53:00,57.2,56.4,29.74,NNE,22,0.0,0.0,97,0.00,CLR,,0.00,WeatherDisplay:10.37,2013-03-30 00:53:00,
2013-03-30 02:55:00,57.2,56.1,29.74,NE,45,0.0,0.0,96,0.00,CLR,,0.00,WeatherDisplay:10.37,2013-03-30 00:55:00,
2013-03-30 02:56:00,57.2,56.1,29.74,NE,45,0.0,0.0,96,0.00,CLR,,0.00,WeatherDisplay:10.37,2013-03-30 00:56:00,
2013-03-30 02:58:00,57.2,56.1,29.74,NE,45,0.0,0.0,96,0.00,CLR,,0.00,WeatherDisplay:10.37,2013-03-30 00:58:00,
2013-03-30 03:00:00,57.2,56.1,29.74,NE,45,1.2,1.2,96,0.00,CLR,,0.00,WeatherDisplay:10.37,2013-03-30 01:00:00,
2013-03-30 03:02:00,57.2,56.1,29.74,NE,45,1.6,1.6,96,0.00,CLR,,0.00,WeatherDisplay:10.37,2013-03-30 01:02:00,
2013-03-30 03:03:00,57.2,56.1,29.74,ENE,68,2.3,2.3,96,0.00,CLR,,0.00,WeatherDisplay:10.37,2013-03-30 01:03:00,
2013-03-30 03:05:00,57.2,56.1,29.74,ENE,68,1.2,1.2,96,0.00,CLR,,0.00,WeatherDisplay:10.37,2013-03-30 01:05:00,
2013-03-30 03:07:00,57.2,56.1,29.74,ENE,68,1.2,0.0,96,0.00,CLR,,0.00,WeatherDisplay:10.37,2013-03-30 01:07:00,
2013-03-30 03:08:00,57.4,56.2,29.74,NE,45,0.0,0.0,96,0.00,CLR,,0.00,WeatherDisplay:10.37,2013-03-30 01:08:00,
2013-03-30 03:10:00,57.4,56.0,29.74,NE,45,0.0,0.0,95,0.00,CLR,,0.00,WeatherDisplay:10.37,2013-03-30 01:10:00,
2013-03-30 03:13:00,57.2,55.8,29.74,NE,45,0.0,0.0,95,0.00,CLR,,0.00,WeatherDisplay:10.37,2013-03-30 01:13:00,
2013-03-30 03:16:00,57.2,55.5,29.74,ENE,68,0.0,0.0,94,0.00,CLR,,0.00,WeatherDisplay:10.37,2013-03-30 01:16:00,
2013-03-30 03:18:00,57.2,55.5,29.74,ENE,68,2.3,2.3,94,0.00,CLR,,0.00,WeatherDisplay:10.37,2013-03-30 01:18:00,
2013-03-30 03:21:00,57.4,55.7,29.74,ENE,68,2.3,2.3,94,0.00,CLR,,0.00,WeatherDisplay:10.37,2013-03-30 01:21:00,
2013-03-30 03:23:00,57.4,55.7,29.74,ENE,68,2.4,2.4,94,0.00,CLR,,0.00,WeatherDisplay:10.37,2013-03-30 01:23:00,
2013-03-30 03:27:00,57.6,55.8,29.68,NNE,22,3.3,3.3,94,0.00,CLR,,0.00,WeatherDisplay:10.37,2013-03-30 01:27:00,
2013-03-30 03:28:00,57.6,55.6,29.68,NNE,22,3.5,3.5,93,0.00,CLR,,0.00,WeatherDisplay:10.37,2013-03-30 01:28:00,
2013-03-30 03:29:00,57.7,55.7,29.68,North,0,3.5,3.5,93,0.00,CLR,,0.00,WeatherDisplay:10.37,2013-03-30 01:29:00,
2013-03-30 03:32:00,57.7,55.7,29.68,NW,315,2.3,2.3,93,0.00,CLR,,0.00,WeatherDisplay:10.37,2013-03-30 01:32:00,
2013-03-30 03:34:00,57.9,55.9,29.68,NE,45,2.3,2.3,93,0.00,CLR,,0.00,WeatherDisplay:10.37,2013-03-30 01:34:00,
2013-03-30 03:35:00,57.9,55.9,29.68,NE,45,3.5,3.5,93,0.00,CLR,,0.00,WeatherDisplay:10.37,2013-03-30 01:35:00,
2013-03-30 03:37:00,57.9,55.6,29.68,ENE,68,2.3,2.3,92,0.00,CLR,,0.00,WeatherDisplay:10.37,2013-03-30 01:37:00,
2013-03-30 03:39:00,57.9,55.6,29.71,ENE,68,1.2,0.0,92,0.00,CLR,,0.00,WeatherDisplay:10.37,2013-03-30 01:39:00,
2013-03-30 03:40:00,57.9,55.6,29.71,ENE,68,1.2,0.0,92,0.00,CLR,,0.00,WeatherDisplay:10.37,2013-03-30 01:40:00,
2013-03-30 03:42:00,57.9,55.6,29.71,ENE,68,0.0,0.0,92,0.00,CLR,,0.00,WeatherDisplay:10.37,2013-03-30 01:42:00,
2013-03-30 03:44:00,57.9,55.6,29.71,ENE,68,1.4,0.0,92,0.00,CLR,,0.00,WeatherDisplay:10.37,2013-03-30 01:44:00,
2013-03-30 03:45:00,57.9,55.6,29.71,NNE,22,1.6,0.0,92,0.00,CLR,,0.00,WeatherDisplay:10.37,2013-03-30 01:45:00,
2013-03-30 03:47:00,57.9,55.3,29.71,NNW,338,1.6,1.6,91,0.00,CLR,,0.00,WeatherDisplay:10.37,2013-03-30 01:47:00,
2013-03-30 03:49:00,57.9,55.3,29.71,NW,315,2.3,0.0,91,0.00,CLR,,0.00,WeatherDisplay:10.37,2013-03-30 01:49:00,
2013-03-30 03:50:00,57.9,55.3,29.71,NNW,338,2.3,0.0,91,0.00,CLR,,0.00,WeatherDisplay:10.37,2013-03-30 01:50:00,
2013-03-30 03:52:00,57.9,55.3,29.71,NE,45,1.2,0.0,91,0.00,CLR,,0.00,WeatherDisplay:10.37,2013-03-30 01:52:00,
2013-03-30 03:54:00,57.9,55.3,29.71,NE,45,0.0,0.0,91,0.00,CLR,,0.00,WeatherDisplay:10.37,2013-03-30 01:54:00,
2013-03-30 03:55:00,57.9,55.3,29.71,NE,45,0.0,0.0,91,0.00,CLR,,0.00,WeatherDisplay:10.37,2013-03-30 01:55:00,
2013-03-30 03:58:00,57.9,55.0,29.71,SSE,158,1.2,0.0,90,0.00,CLR,,0.00,WeatherDisplay:10.37,2013-03-30 01:58:00,
2013-03-30 03:59:00,58.1,54.9,29.71,SSE,158,0.0,0.0,89,0.00,CLR,,0.00,WeatherDisplay:10.37,2013-03-30 01:59:00,
2013-03-30 04:00:00,58.1,54.9,29.71,SSE,158,0.0,0.0,89,0.00,CLR,,0.00,WeatherDisplay:10.37,2013-03-30 02:00:00,
2013-03-30 04:03:00,58.1,54.9,29.71,SSE,158,2.3,2.3,89,0.00,CLR,,0.00,WeatherDisplay:10.37,2013-03-30 02:03:00,
2013-03-30 04:04:00,58.1,54.9,29.71,SSE,158,2.3,0.0,89,0.00,CLR,,0.00,WeatherDisplay:10.37,2013-03-30 02:04:00,
2013-03-30 04:05:00,58.1,54.2,29.71,SSE,158,2.3,0.0,87,0.00,CLR,,0.00,WeatherDisplay:10.37,2013-03-30 02:05:00,
2013-03-30 04:08:00,57.9,54.7,29.71,ESE,112,2.0,2.0,89,0.00,CLR,,0.00,WeatherDisplay:10.37,2013-03-30 02:08:00,
2013-03-30 04:09:00,57.9,54.7,29.71,ESE,112,3.5,3.5,89,0.00,CLR,,0.00,WeatherDisplay:10.37,2013-03-30 02:09:00,
2013-03-30 04:10:00,57.9,54.7,29.71,East,90,3.5,3.5,89,0.00,CLR,,0.00,WeatherDisplay:10.37,2013-03-30 02:10:00,
2013-03-30 04:14:00,57.9,54.4,29.71,East,90,0.0,0.0,88,0.00,CLR,,0.00,WeatherDisplay:10.37,2013-03-30 02:14:00,
2013-03-30 04:15:00,57.9,54.4,29.71,East,90,1.4,0.0,88,0.00,CLR,,0.00,WeatherDisplay:10.37,2013-03-30 02:15:00,
2013-03-30 04:19:00,57.7,54.2,29.71,East,90,2.2,2.2,88,0.00,CLR,,0.00,WeatherDisplay:10.37,2013-03-30 02:19:00,
2013-03-30 04:20:00,57.7,54.2,29.71,East,90,2.3,2.3,88,0.00,CLR,,0.00,WeatherDisplay:10.37,2013-03-30 02:20:00,
2013-03-30 04:24:00,57.6,54.0,29.71,East,90,1.2,1.2,88,0.00,CLR,,0.00,WeatherDisplay:10.37,2013-03-30 02:24:00,
2013-03-30 04:25:00,57.6,54.0,29.71,East,90,1.2,1.2,88,0.00,CLR,,0.00,WeatherDisplay:10.37,2013-03-30 02:25:00,
2013-03-30 04:29:00,57.4,53.9,29.71,East,90,1.6,0.0,88,0.00,CLR,,0.00,WeatherDisplay:10.37,2013-03-30 02:29:00,
2013-03-30 04:30:00,57.4,53.9,29.71,ENE,68,2.3,2.3,88,0.00,CLR,,0.00,WeatherDisplay:10.37,2013-03-30 02:30:00,
2013-03-30 04:31:00,57.4,53.9,29.71,ENE,68,2.4,2.4,88,0.00,CLR,,0.00,WeatherDisplay:10.37,2013-03-30 02:31:00,
2013-03-30 04:35:00,57.6,54.0,29.71,NE,50,2.0,3.0,88,0.00,CLR,,0.00,WeatherDisplay:10.37,2013-03-30 02:35:00,
2013-03-30 04:36:00,57.6,54.0,29.71,NE,45,2.9,2.9,88,0.00,CLR,,0.00,WeatherDisplay:10.37,2013-03-30 02:36:00,
2013-03-30 04:40:00,57.7,54.2,29.68,ENE,68,4.6,4.6,88,0.00,CLR,,0.00,WeatherDisplay:10.37,2013-03-30 02:40:00,
2013-03-30 04:41:00,57.7,54.2,29.68,NNE,22,4.6,4.6,88,0.00,CLR,,0.00,WeatherDisplay:10.37,2013-03-30 02:41:00,
2013-03-30 04:45:00,57.9,54.1,29.68,ENE,68,2.3,2.3,87,0.00,CLR,,0.00,WeatherDisplay:10.37,2013-03-30 02:45:00,
2013-03-30 04:46:00,57.9,54.1,29.68,ENE,68,2.4,2.4,87,0.00,CLR,,0.00,WeatherDisplay:10.37,2013-03-30 02:46:00,
2013-03-30 04:50:00,57.9,54.1,29.68,SE,135,2.3,2.3,87,0.00,CLR,,0.00,WeatherDisplay:10.37,2013-03-30 02:50:00,
2013-03-30 04:51:00,57.9,54.1,29.68,SE,135,2.3,2.3,87,0.00,CLR,,0.00,WeatherDisplay:10.37,2013-03-30 02:51:00,
2013-03-30 04:52:00,57.9,54.1,29.68,SE,135,2.3,2.3,87,0.00,CLR,,0.00,WeatherDisplay:10.37,2013-03-30 02:52:00,
2013-03-30 04:56:00,57.9,54.1,29.68,NE,45,2.6,2.6,87,0.00,CLR,,0.00,WeatherDisplay:10.37,2013-03-30 02:56:00,
2013-03-30 04:57:00,57.9,54.1,29.68,ENE,68,2.3,2.3,87,0.00,CLR,,0.00,WeatherDisplay:10.37,2013-03-30 02:57:00,
2013-03-30 04:58:00,57.9,54.1,29.68,ENE,68,2.3,2.3,87,0.00,CLR,,0.00,WeatherDisplay:10.37,2013-03-30 02:58:00,
2013-03-30 05:01:00,57.9,54.1,29.68,ENE,68,0.9,0.0,87,0.00,CLR,,0.00,WeatherDisplay:10.37,2013-03-30 03:01:00,
2013-03-30 05:02:00,57.9,54.1,29.68,ENE,68,1.2,1.2,87,0.00,CLR,,0.00,WeatherDisplay:10.37,2013-03-30 03:02:00,
2013-03-30 05:03:00,57.9,54.1,29.68,ENE,68,1.2,0.0,87,0.00,CLR,,0.00,WeatherDisplay:10.37,2013-03-30 03:03:00,
2013-03-30 05:06:00,57.9,54.1,29.68,ENE,68,0.0,0.0,87,0.00,CLR,,0.00,WeatherDisplay:10.37,2013-03-30 03:06:00,
2013-03-30 05:07:00,57.9,53.8,29.68,ENE,68,0.0,0.0,86,0.00,CLR,,0.00,WeatherDisplay:10.37,2013-03-30 03:07:00,
2013-03-30 05:08:00,57.9,53.8,29.68,ENE,68,0.0,0.0,86,0.00,CLR,,0.00,WeatherDisplay:10.37,2013-03-30 03:08:00,
2013-03-30 05:11:00,57.7,53.6,29.68,ENE,68,0.0,0.0,86,0.00,CLR,,0.00,WeatherDisplay:10.37,2013-03-30 03:11:00,
2013-03-30 05:12:00,57.7,53.6,29.68,South,180,1.2,1.2,86,0.00,CLR,,0.00,WeatherDisplay:10.37,2013-03-30 03:12:00,
2013-03-30 05:13:00,57.7,53.6,29.68,South,180,1.2,1.2,86,0.00,CLR,,0.00,WeatherDisplay:10.37,2013-03-30 03:13:00,
2013-03-30 05:17:00,57.7,53.6,29.68,ESE,112,2.3,2.3,86,0.00,CLR,,0.00,WeatherDisplay:10.37,2013-03-30 03:17:00,
2013-03-30 05:18:00,57.7,53.6,29.68,ENE,68,2.9,2.9,86,0.00,CLR,,0.00,WeatherDisplay:10.37,2013-03-30 03:18:00,
2013-03-30 05:22:00,57.9,53.8,29.68,ENE,68,1.2,0.0,86,0.00,CLR,,0.00,WeatherDisplay:10.37,2013-03-30 03:22:00,
2013-03-30 05:23:00,57.9,53.8,29.68,ENE,68,1.2,0.0,86,0.00,CLR,,0.00,WeatherDisplay:10.37,2013-03-30 03:23:00,
2013-03-30 05:24:00,57.9,53.8,29.68,ENE,68,1.6,0.0,86,0.00,CLR,,0.00,WeatherDisplay:10.37,2013-03-30 03:24:00,
2013-03-30 05:27:00,57.9,53.8,29.68,ENE,68,2.3,2.3,86,0.00,CLR,,0.00,WeatherDisplay:10.37,2013-03-30 03:27:00,
2013-03-30 05:28:00,57.9,53.8,29.68,ENE,68,2.3,2.3,86,0.00,CLR,,0.00,WeatherDisplay:10.37,2013-03-30 03:28:00,
2013-03-30 05:29:00,57.9,53.8,29.68,ENE,68,1.2,0.0,86,0.00,CLR,,0.00,WeatherDisplay:10.37,2013-03-30 03:29:00,
2013-03-30 05:33:00,57.7,53.6,29.68,ENE,68,2.3,2.3,86,0.00,CLR,,0.00,WeatherDisplay:10.37,2013-03-30 03:33:00,
2013-03-30 05:34:00,57.7,53.6,29.68,ENE,68,1.2,1.2,86,0.00,CLR,,0.00,WeatherDisplay:10.37,2013-03-30 03:34:00,
2013-03-30 05:38:00,57.7,53.6,29.68,ENE,68,1.2,0.0,86,0.00,CLR,,0.00,WeatherDisplay:10.37,2013-03-30 03:38:00,
2013-03-30 05:39:00,57.7,53.3,29.68,ENE,68,0.0,0.0,85,0.00,CLR,,0.00,WeatherDisplay:10.37,2013-03-30 03:39:00,
2013-03-30 05:43:00,57.7,53.3,29.68,ENE,68,2.6,2.6,85,0.00,CLR,,0.00,WeatherDisplay:10.37,2013-03-30 03:43:00,
2013-03-30 05:44:00,57.9,53.4,29.68,ENE,68,2.4,2.4,85,0.00,CLR,,0.00,WeatherDisplay:10.37,2013-03-30 03:44:00,
2013-03-30 05:48:00,57.9,53.4,29.68,ENE,68,2.3,2.3,85,0.00,CLR,,0.00,WeatherDisplay:10.37,2013-03-30 03:48:00,
2013-03-30 05:49:00,57.9,53.4,29.68,ENE,68,2.3,2.3,85,0.00,CLR,,0.00,WeatherDisplay:10.37,2013-03-30 03:49:00,
2013-03-30 05:53:00,57.9,53.4,29.68,NE,45,2.3,2.3,85,0.00,CLR,,0.00,WeatherDisplay:10.37,2013-03-30 03:53:00,
2013-03-30 05:54:00,57.9,53.4,29.68,NE,45,1.2,1.2,85,0.00,CLR,,0.00,WeatherDisplay:10.37,2013-03-30 03:54:00,
2013-03-30 05:58:00,57.9,53.1,29.68,NE,45,2.3,2.3,84,0.00,CLR,,0.00,WeatherDisplay:10.37,2013-03-30 03:58:00,
2013-03-30 05:59:00,57.9,53.1,29.68,NE,45,2.3,2.3,84,0.00,CLR,,0.00,WeatherDisplay:10.37,2013-03-30 03:59:00,
2013-03-30 06:00:00,57.9,53.1,29.68,NE,45,2.3,2.3,84,0.00,CLR,,0.00,WeatherDisplay:10.37,2013-03-30 04:00:00,
2013-03-30 06:05:00,57.9,53.1,29.68,NE,45,1.2,1.2,84,0.00,CLR,,0.00,WeatherDisplay:10.37,2013-03-30 04:05:00,
2013-03-30 06:10:00,57.9,53.1,29.68,NE,45,0.0,0.0,84,0.00,CLR,,0.00,WeatherDisplay:10.37,2013-03-30 04:10:00,
2013-03-30 06:15:00,57.6,52.8,29.68,SSW,202,1.2,0.0,84,0.00,CLR,,0.00,WeatherDisplay:10.37,2013-03-30 04:15:00,
2013-03-30 06:16:00,57.7,52.6,29.68,SSW,202,2.2,2.2,83,0.00,CLR,,0.00,WeatherDisplay:10.37,2013-03-30 04:16:00,
2013-03-30 06:20:00,57.7,52.9,29.68,SSW,202,0.0,0.0,84,0.00,CLR,,0.00,WeatherDisplay:10.37,2013-03-30 04:20:00,
2013-03-30 06:21:00,57.6,52.8,29.68,SSW,202,0.0,0.0,84,0.00,CLR,,0.00,WeatherDisplay:10.37,2013-03-30 04:21:00,
2013-03-30 06:25:00,57.6,52.8,29.71,SSW,202,2.2,0.0,84,0.00,CLR,,0.00,WeatherDisplay:10.37,2013-03-30 04:25:00,
2013-03-30 06:26:00,57.6,53.1,29.71,SSW,202,2.3,0.0,85,0.00,CLR,,0.00,WeatherDisplay:10.37,2013-03-30 04:26:00,
2013-03-30 06:27:00,57.6,53.1,29.71,SSW,202,2.3,0.0,85,0.00,CLR,,0.00,WeatherDisplay:10.37,2013-03-30 04:27:00,
2013-03-30 06:30:00,57.6,53.1,29.71,SSW,202,0.0,0.0,85,0.00,CLR,,0.00,WeatherDisplay:10.37,2013-03-30 04:30:00,
2013-03-30 06:32:00,57.6,53.1,29.71,SSW,202,0.0,0.0,85,0.00,CLR,,0.00,WeatherDisplay:10.37,2013-03-30 04:32:00,
2013-03-30 06:33:00,57.6,53.1,29.71,SSW,202,0.0,0.0,85,0.00,CLR,,0.00,WeatherDisplay:10.37,2013-03-30 04:33:00,
2013-03-30 06:35:00,57.4,52.9,29.71,SSW,202,0.0,0.0,85,0.00,CLR,,0.00,WeatherDisplay:10.37,2013-03-30 04:35:00,
2013-03-30 06:37:00,57.6,53.1,29.71,SSW,202,0.0,0.0,85,0.00,CLR,,0.00,WeatherDisplay:10.37,2013-03-30 04:37:00,
2013-03-30 06:38:00,57.6,53.1,29.71,SSW,202,0.0,0.0,85,0.00,CLR,,0.00,WeatherDisplay:10.37,2013-03-30 04:38:00,
2013-03-30 06:40:00,57.6,53.4,29.71,SSW,202,0.0,0.0,86,0.00,CLR,,0.00,WeatherDisplay:10.37,2013-03-30 04:40:00,
2013-03-30 06:41:00,57.6,53.4,29.71,SSW,202,0.0,0.0,86,0.00,CLR,,0.00,WeatherDisplay:10.37,2013-03-30 04:41:00,
2013-03-30 06:43:00,57.6,53.4,29.71,SSW,202,0.0,0.0,86,0.00,CLR,,0.00,WeatherDisplay:10.37,2013-03-30 04:43:00,
2013-03-30 06:45:00,57.6,53.4,29.71,SSW,202,1.4,0.0,86,0.00,CLR,,0.00,WeatherDisplay:10.37,2013-03-30 04:45:00,
2013-03-30 06:46:00,57.6,53.4,29.71,SSW,202,1.6,0.0,86,0.00,CLR,,0.00,WeatherDisplay:10.37,2013-03-30 04:46:00,
2013-03-30 06:48:00,57.7,53.6,29.71,SSW,202,2.3,2.3,86,0.00,CLR,,0.00,WeatherDisplay:10.37,2013-03-30 04:48:00,
2013-03-30 06:51:00,57.9,54.1,29.71,SSW,202,1.2,1.2,87,0.00,CLR,,0.00,WeatherDisplay:10.37,2013-03-30 04:51:00,
2013-03-30 06:52:00,57.9,54.1,29.71,SSW,202,1.2,0.0,87,0.00,CLR,,0.00,WeatherDisplay:10.37,2013-03-30 04:52:00,
2013-03-30 06:53:00,57.9,54.1,29.71,SSW,202,0.0,0.0,87,0.00,CLR,,0.00,WeatherDisplay:10.37,2013-03-30 04:53:00,
2013-03-30 06:56:00,58.1,54.2,29.68,SSW,202,0.0,0.0,87,0.00,CLR,,0.00,WeatherDisplay:10.37,2013-03-30 04:56:00,
2013-03-30 06:57:00,58.3,54.4,29.68,SSW,202,0.0,0.0,87,0.00,CLR,,0.00,WeatherDisplay:10.37,2013-03-30 04:57:00,
2013-03-30 06:58:00,58.3,54.4,29.68,SSW,202,0.0,0.0,87,0.00,CLR,,0.00,WeatherDisplay:10.37,2013-03-30 04:58:00,
2013-03-30 07:01:00,58.6,55.1,29.68,SSW,202,2.3,2.3,88,0.00,CLR,,0.00,WeatherDisplay:10.37,2013-03-30 05:01:00,
2013-03-30 07:02:00,58.6,55.1,29.68,SSW,202,1.2,0.0,88,0.00,CLR,,0.00,WeatherDisplay:10.37,2013-03-30 05:02:00,
2013-03-30 07:03:00,58.8,55.3,29.68,SSW,202,1.2,0.0,88,0.00,CLR,,0.00,WeatherDisplay:10.37,2013-03-30 05:03:00,
2013-03-30 07:04:00,58.8,55.3,29.68,SSW,202,1.2,0.0,88,0.00,CLR,,0.00,WeatherDisplay:10.37,2013-03-30 05:04:00,
2013-03-30 07:06:00,59.2,55.3,29.68,SSW,202,2.4,2.4,87,0.00,CLR,,0.00,WeatherDisplay:10.37,2013-03-30 05:06:00,
2013-03-30 07:07:00,59.2,55.3,29.68,SSW,202,2.6,2.6,87,0.00,CLR,,0.00,WeatherDisplay:10.37,2013-03-30 05:07:00,
2013-03-30 07:08:00,59.5,55.7,29.68,SSW,202,2.3,2.3,87,0.00,CLR,,0.00,WeatherDisplay:10.37,2013-03-30 05:08:00,
2013-03-30 07:09:00,59.5,55.7,29.71,SSW,202,2.3,2.3,87,0.00,CLR,,0.00,WeatherDisplay:10.37,2013-03-30 05:09:00,
2013-03-30 07:12:00,60.1,56.2,29.71,SSW,202,2.6,2.6,87,0.00,CLR,,0.00,WeatherDisplay:10.37,2013-03-30 05:12:00,
2013-03-30 07:13:00,60.3,56.1,29.71,SSW,202,2.3,2.3,86,0.00,CLR,,0.00,WeatherDisplay:10.37,2013-03-30 05:13:00,
2013-03-30 07:14:00,60.4,55.9,29.71,SSW,202,2.3,2.3,85,0.00,CLR,,0.00,WeatherDisplay:10.37,2013-03-30 05:14:00,
2013-03-30 07:17:00,61.0,56.4,29.71,SSW,202,1.2,0.0,85,0.00,CLR,,0.00,WeatherDisplay:10.37,2013-03-30 05:17:00,
2013-03-30 07:18:00,61.0,56.4,29.71,SSW,202,0.9,0.0,85,0.00,CLR,,0.00,WeatherDisplay:10.37,2013-03-30 05:18:00,
2013-03-30 07:19:00,61.3,56.5,29.71,SSW,202,1.2,0.0,84,0.00,CLR,,0.00,WeatherDisplay:10.37,2013-03-30 05:19:00,
2013-03-30 07:22:00,61.5,56.6,29.71,SSW,202,2.3,2.3,84,0.00,CLR,,0.00,WeatherDisplay:10.37,2013-03-30 05:22:00,
2013-03-30 07:23:00,61.7,56.5,29.71,SSW,202,2.3,2.3,83,0.00,CLR,,0.00,WeatherDisplay:10.37,2013-03-30 05:23:00,
2013-03-30 07:24:00,61.7,56.5,29.71,SSW,202,2.3,2.3,83,0.00,CLR,,0.00,WeatherDisplay:10.37,2013-03-30 05:24:00,
2013-03-30 07:27:00,62.1,56.5,29.68,ESE,112,2.3,2.3,82,0.00,CLR,,0.00,WeatherDisplay:10.37,2013-03-30 05:27:00,
2013-03-30 07:28:00,62.1,56.2,29.68,ESE,112,1.2,1.4,81,0.00,CLR,,0.00,WeatherDisplay:10.37,2013-03-30 05:28:00,
2013-03-30 07:29:00,62.2,56.3,29.68,ESE,112,1.2,1.2,81,0.00,CLR,,0.00,WeatherDisplay:10.37,2013-03-30 05:29:00,
2013-03-30 07:32:00,61.9,54.9,29.68,SSW,202,1.2,0.0,78,0.00,CLR,,0.00,WeatherDisplay:10.37,2013-03-30 05:32:00,
2013-03-30 07:33:00,61.9,54.9,29.68,SSW,202,0.0,0.0,78,0.00,CLR,,0.00,WeatherDisplay:10.37,2013-03-30 05:33:00,
2013-03-30 07:34:00,61.9,54.9,29.68,SSW,202,0.0,0.0,78,0.00,CLR,,0.00,WeatherDisplay:10.37,2013-03-30 05:34:00,
2013-03-30 07:37:00,61.9,54.2,29.68,SSW,202,1.4,1.4,76,0.00,CLR,,0.00,WeatherDisplay:10.37,2013-03-30 05:37:00,
2013-03-30 07:38:00,61.7,54.1,29.68,SSW,202,1.2,1.2,76,0.00,CLR,,0.00,WeatherDisplay:10.37,2013-03-30 05:38:00,
2013-03-30 07:39:00,61.7,53.7,29.71,SSW,202,1.2,0.0,75,0.00,CLR,,0.00,WeatherDisplay:10.37,2013-03-30 05:39:00,
2013-03-30 07:43:00,61.7,53.7,29.71,SSW,202,1.2,0.0,75,0.00,CLR,,0.00,WeatherDisplay:10.37,2013-03-30 05:43:00,
2013-03-30 07:44:00,61.5,53.5,29.71,SSW,202,0.0,0.0,75,0.00,CLR,,0.00,WeatherDisplay:10.37,2013-03-30 05:44:00,
2013-03-30 07:45:00,61.5,53.5,29.71,SSW,202,1.2,0.0,75,0.00,CLR,,0.00,WeatherDisplay:10.37,2013-03-30 05:45:00,
2013-03-30 07:48:00,61.7,53.7,29.71,SSW,202,0.0,0.0,75,0.00,CLR,,0.00,WeatherDisplay:10.37,2013-03-30 05:48:00,
2013-03-30 07:49:00,61.7,53.7,29.71,SSW,202,1.2,1.2,75,0.00,CLR,,0.00,WeatherDisplay:10.37,2013-03-30 05:49:00,
2013-03-30 07:50:00,61.7,53.7,29.71,SSW,202,1.2,0.0,75,0.00,CLR,,0.00,WeatherDisplay:10.37,2013-03-30 05:50:00,
2013-03-30 07:53:00,61.9,54.2,29.71,SSW,202,0.0,0.0,76,0.00,CLR,,0.00,WeatherDisplay:10.37,2013-03-30 05:53:00,
2013-03-30 07:54:00,61.9,54.2,29.71,SSW,202,0.0,0.0,76,0.00,CLR,,0.00,WeatherDisplay:10.37,2013-03-30 05:54:00,
2013-03-30 07:55:00,61.9,54.2,29.71,SSW,202,0.0,0.0,76,0.00,CLR,,0.00,WeatherDisplay:10.37,2013-03-30 05:55:00,
2013-03-30 07:58:00,62.1,54.4,29.71,SSW,202,0.0,0.0,76,0.00,CLR,,0.00,WeatherDisplay:10.37,2013-03-30 05:58:00,
2013-03-30 07:59:00,62.1,54.4,29.71,South,180,0.0,0.0,76,0.00,CLR,,0.00,WeatherDisplay:10.37,2013-03-30 05:59:00,
2013-03-30 08:00:00,62.2,54.6,29.71,SSE,158,1.2,0.0,76,0.00,CLR,,0.00,WeatherDisplay:10.37,2013-03-30 06:00:00,
2013-03-30 08:03:00,62.2,54.6,29.71,ESE,112,1.2,1.2,76,0.00,CLR,,0.00,WeatherDisplay:10.37,2013-03-30 06:03:00,
2013-03-30 08:04:00,62.2,54.6,29.71,ESE,112,1.2,1.2,76,0.00,CLR,,0.00,WeatherDisplay:10.37,2013-03-30 06:04:00,
2013-03-30 08:05:00,62.4,54.8,29.71,ESE,112,1.2,0.0,76,0.00,CLR,,0.00,WeatherDisplay:10.37,2013-03-30 06:05:00,
2013-03-30 08:06:00,62.4,54.8,29.71,ESE,112,0.0,0.0,76,0.00,CLR,,0.00,WeatherDisplay:10.37,2013-03-30 06:06:00,
2013-03-30 08:09:00,62.8,55.1,29.71,ESE,112,0.0,0.0,76,0.00,CLR,,0.00,WeatherDisplay:10.37,2013-03-30 06:09:00,
2013-03-30 08:10:00,62.8,55.1,29.71,ESE,112,0.0,0.0,76,0.00,CLR,,0.00,WeatherDisplay:10.37,2013-03-30 06:10:00,
2013-03-30 08:12:00,62.8,55.1,29.71,ESE,112,0.0,0.0,76,0.00,CLR,,0.00,WeatherDisplay:10.37,2013-03-30 06:12:00,
2013-03-30 08:14:00,63.0,55.3,29.71,ESE,112,0.0,0.0,76,0.00,CLR,,0.00,WeatherDisplay:10.37,2013-03-30 06:14:00,
2013-03-30 08:15:00,63.0,55.3,29.71,ESE,112,0.0,0.0,76,0.00,CLR,,0.00,WeatherDisplay:10.37,2013-03-30 06:15:00,
2013-03-30 08:17:00,63.0,55.3,29.71,ESE,112,0.0,0.0,76,0.00,CLR,,0.00,WeatherDisplay:10.37,2013-03-30 06:17:00,
2013-03-30 08:19:00,63.1,55.4,29.71,ESE,112,0.0,0.0,76,0.00,CLR,,0.00,WeatherDisplay:10.37,2013-03-30 06:19:00,
2013-03-30 08:20:00,63.1,55.4,29.71,ESE,112,0.0,0.0,76,0.00,CLR,,0.00,WeatherDisplay:10.37,2013-03-30 06:20:00,
2013-03-30 08:22:00,63.5,55.8,29.71,ESE,112,0.0,0.0,76,0.00,CLR,,0.00,WeatherDisplay:10.37,2013-03-30 06:22:00,
2013-03-30 08:24:00,64.0,56.7,29.71,ESE,112,0.0,0.0,77,0.00,CLR,,0.00,WeatherDisplay:10.37,2013-03-30 06:24:00,
2013-03-30 08:25:00,64.2,56.9,29.71,ESE,112,0.0,0.0,77,0.00,CLR,,0.00,WeatherDisplay:10.37,2013-03-30 06:25:00,
2013-03-30 08:27:00,64.8,57.0,29.71,ESE,112,0.0,0.0,76,0.00,CLR,,0.00,WeatherDisplay:10.37,2013-03-30 06:27:00,
2013-03-30 08:29:00,64.9,57.2,29.71,ESE,112,1.2,1.2,76,0.00,CLR,,0.00,WeatherDisplay:10.37,2013-03-30 06:29:00,
2013-03-30 08:30:00,65.3,57.2,29.71,ESE,112,1.2,0.0,75,0.00,CLR,,0.00,WeatherDisplay:10.37,2013-03-30 06:30:00,
2013-03-30 08:33:00,65.3,56.8,29.71,ESE,112,0.0,0.0,74,0.00,CLR,,0.00,WeatherDisplay:10.37,2013-03-30 06:33:00,
2013-03-30 08:34:00,65.3,56.4,29.71,ESE,112,0.0,0.0,73,0.00,CLR,,0.00,WeatherDisplay:10.37,2013-03-30 06:34:00,
2013-03-30 08:35:00,65.5,56.6,29.71,ESE,112,0.0,0.0,73,0.00,CLR,,0.00,WeatherDisplay:10.37,2013-03-30 06:35:00,
2013-03-30 08:36:00,65.5,56.6,29.71,ESE,112,0.0,0.0,73,0.00,CLR,,0.00,WeatherDisplay:10.37,2013-03-30 06:36:00,
2013-03-30 08:38:00,65.7,57.1,29.71,ESE,112,0.9,0.0,74,0.00,CLR,,0.00,WeatherDisplay:10.37,2013-03-30 06:38:00,
2013-03-30 08:40:00,66.2,57.3,29.71,ESE,112,1.2,0.0,73,0.00,CLR,,0.00,WeatherDisplay:10.37,2013-03-30 06:40:00,
2013-03-30 08:41:00,66.7,57.8,29.71,ESE,112,0.0,0.0,73,0.00,CLR,,0.00,WeatherDisplay:10.37,2013-03-30 06:41:00,
2013-03-30 08:43:00,67.5,57.7,29.71,ESE,112,0.0,0.0,71,0.00,CLR,,0.00,WeatherDisplay:10.37,2013-03-30 06:43:00,
2013-03-30 08:45:00,68.2,58.4,29.71,ESE,112,0.0,0.0,71,0.00,CLR,,0.00,WeatherDisplay:10.37,2013-03-30 06:45:00,
2013-03-30 08:47:00,68.9,59.9,29.71,ESE,112,0.0,0.0,73,0.00,CLR,,0.00,WeatherDisplay:10.37,2013-03-30 06:47:00,
2013-03-30 08:49:00,69.4,60.0,29.71,ESE,112,0.0,0.0,72,0.00,CLR,,0.00,WeatherDisplay:10.37,2013-03-30 06:49:00,
2013-03-30 08:50:00,69.6,59.0,29.71,ESE,112,0.0,0.0,69,0.00,CLR,,0.00,WeatherDisplay:10.37,2013-03-30 06:50:00,
2013-03-30 08:52:00,69.4,57.6,29.71,ESE,112,1.4,0.0,66,0.00,CLR,,0.00,WeatherDisplay:10.37,2013-03-30 06:52:00,
2013-03-30 08:54:00,69.4,58.0,29.71,ESE,112,1.2,1.2,67,0.00,CLR,,0.00,WeatherDisplay:10.37,2013-03-30 06:54:00,
2013-03-30 08:55:00,69.3,56.6,29.71,ESE,112,1.2,0.0,64,0.00,CLR,,0.00,WeatherDisplay:10.37,2013-03-30 06:55:00,
2013-03-30 08:57:00,69.3,56.1,29.71,ESE,112,0.0,0.0,63,0.00,CLR,,0.00,WeatherDisplay:10.37,2013-03-30 06:57:00,
2013-03-30 08:59:00,69.3,56.1,29.71,ESE,112,0.0,0.0,63,0.00,CLR,,0.00,WeatherDisplay:10.37,2013-03-30 06:59:00,
2013-03-30 09:00:00,69.3,55.7,29.71,ESE,112,0.0,0.0,62,0.00,CLR,,0.00,WeatherDisplay:10.37,2013-03-30 07:00:00,
2013-03-30 09:01:00,69.1,54.1,29.71,North,0,3.3,0.0,59,0.00,CLR,,0.00,WeatherDisplay:10.37,2013-03-30 07:01:00,
2013-03-30 09:03:00,68.9,48.9,29.71,NNE,22,2.3,2.3,49,0.00,CLR,,0.00,WeatherDisplay:10.37,2013-03-30 07:03:00,
2013-03-30 09:04:00,68.9,48.9,29.71,NNE,22,2.3,2.3,49,0.00,CLR,,0.00,WeatherDisplay:10.37,2013-03-30 07:04:00,
2013-03-30 09:05:00,69.3,51.9,29.71,NNE,22,1.2,1.2,54,0.00,CLR,,0.00,WeatherDisplay:10.37,2013-03-30 07:05:00,
2013-03-30 09:07:00,69.6,52.2,29.71,NNE,22,2.3,2.3,54,0.00,CLR,,0.00,WeatherDisplay:10.37,2013-03-30 07:07:00,
2013-03-30 09:08:00,70.0,52.1,29.71,NNE,22,1.2,0.0,53,0.00,CLR,,0.00,WeatherDisplay:10.37,2013-03-30 07:08:00,
2013-03-30 09:09:00,70.2,52.2,29.68,NNE,22,1.6,0.0,53,0.00,CLR,,0.00,WeatherDisplay:10.37,2013-03-30 07:09:00,
2013-03-30 09:10:00,70.3,51.9,29.68,NNE,22,2.3,2.3,52,0.00,CLR,,0.00,WeatherDisplay:10.37,2013-03-30 07:10:00,
2013-03-30 09:12:00,70.7,51.1,29.68,NNE,22,1.2,0.0,50,0.00,CLR,,0.00,WeatherDisplay:10.37,2013-03-30 07:12:00,
2013-03-30 09:13:00,70.5,51.5,29.68,NW,315,2.3,2.3,51,0.00,CLR,,0.00,WeatherDisplay:10.37,2013-03-30 07:13:00,
2013-03-30 09:14:00,70.5,51.5,29.68,WNW,292,2.4,2.4,51,0.00,CLR,,0.00,WeatherDisplay:10.37,2013-03-30 07:14:00,
2013-03-30 09:15:00,70.5,51.0,29.68,WNW,292,2.3,2.3,50,0.00,CLR,,0.00,WeatherDisplay:10.37,2013-03-30 07:15:00,
2013-03-30 09:17:00,70.5,49.3,29.68,WNW,292,1.2,0.0,47,0.00,CLR,,0.00,WeatherDisplay:10.37,2013-03-30 07:17:00,
2013-03-30 09:19:00,70.3,49.7,29.68,WNW,292,0.0,0.0,48,0.00,CLR,,0.00,WeatherDisplay:10.37,2013-03-30 07:19:00,
2013-03-30 09:20:00,70.3,49.1,29.68,WNW,292,1.2,0.0,47,0.00,CLR,,0.00,WeatherDisplay:10.37,2013-03-30 07:20:00,
2013-03-30 09:22:00,70.3,49.1,29.68,WNW,292,1.2,1.2,47,0.00,CLR,,0.00,WeatherDisplay:10.37,2013-03-30 07:22:00,
2013-03-30 09:24:00,70.3,49.1,29.71,WNW,292,1.2,1.2,47,0.00,CLR,,0.00,WeatherDisplay:10.37,2013-03-30 07:24:00,
2013-03-30 09:27:00,70.2,48.4,29.71,WNW,292,2.6,2.6,46,0.00,CLR,,0.00,WeatherDisplay:10.37,2013-03-30 07:27:00,
2013-03-30 09:29:00,70.0,48.2,29.71,West,270,3.5,3.5,46,0.00,CLR,,0.00,WeatherDisplay:10.37,2013-03-30 07:29:00,
2013-03-30 09:32:00,70.7,48.9,29.71,West,270,1.2,1.2,46,0.00,CLR,,0.00,WeatherDisplay:10.37,2013-03-30 07:32:00,
2013-03-30 09:34:00,72.0,50.0,29.71,West,270,1.2,0.0,46,0.00,CLR,,0.00,WeatherDisplay:10.37,2013-03-30 07:34:00,
2013-03-30 09:37:00,73.2,50.6,29.71,West,270,1.2,1.2,45,0.00,CLR,,0.00,WeatherDisplay:10.37,2013-03-30 07:37:00,
2013-03-30 09:39:00,73.8,51.1,29.68,West,270,1.2,0.0,45,0.00,CLR,,0.00,WeatherDisplay:10.37,2013-03-30 07:39:00,
2013-03-30 09:42:00,74.8,50.2,29.68,ESE,112,2.4,0.0,42,0.00,CLR,,0.00,WeatherDisplay:10.37,2013-03-30 07:42:00,
2013-03-30 09:44:00,75.4,50.7,29.68,WSW,248,1.4,1.4,42,0.00,CLR,,0.00,WeatherDisplay:10.37,2013-03-30 07:44:00,
2013-03-30 09:45:00,75.0,50.4,29.68,WSW,248,1.2,1.2,42,0.00,CLR,,0.00,WeatherDisplay:10.37,2013-03-30 07:45:00,
2013-03-30 09:47:00,75.0,50.4,29.68,SSW,202,1.2,0.0,42,0.00,CLR,,0.00,WeatherDisplay:10.37,2013-03-30 07:47:00,
2013-03-30 09:49:00,75.6,50.2,29.68,WSW,248,1.2,0.0,41,0.00,CLR,,0.00,WeatherDisplay:10.37,2013-03-30 07:49:00,
2013-03-30 09:50:00,75.6,50.2,29.68,WSW,248,1.2,0.0,41,0.00,CLR,,0.00,WeatherDisplay:10.37,2013-03-30 07:50:00,
2013-03-30 09:52:00,76.6,49.8,29.68,SSE,158,1.6,0.0,39,0.00,CLR,,0.00,WeatherDisplay:10.37,2013-03-30 07:52:00,
2013-03-30 09:55:00,76.8,47.1,29.68,SSW,202,3.5,3.5,35,0.00,CLR,,0.00,WeatherDisplay:10.37,2013-03-30 07:55:00,
2013-03-30 09:57:00,76.5,44.4,29.68,SSE,158,9.2,9.2,32,0.00,CLR,,0.00,WeatherDisplay:10.37,2013-03-30 07:57:00,
2013-03-30 09:58:00,76.5,44.4,29.68,SSE,158,9.2,9.2,32,0.00,CLR,,0.00,WeatherDisplay:10.37,2013-03-30 07:58:00,
2013-03-30 10:00:00,75.7,43.8,29.68,SE,135,4.6,4.6,32,0.00,CLR,,0.00,WeatherDisplay:10.37,2013-03-30 08:00:00,
2013-03-30 10:02:00,76.3,44.2,29.68,South,180,2.6,2.6,32,0.00,CLR,,0.00,WeatherDisplay:10.37,2013-03-30 08:02:00,
2013-03-30 10:03:00,76.3,44.2,29.68,South,180,2.3,2.6,32,0.00,CLR,,0.00,WeatherDisplay:10.37,2013-03-30 08:03:00,
2013-03-30 10:05:00,75.9,43.1,29.68,SSE,158,7.6,7.6,31,0.00,CLR,,0.00,WeatherDisplay:10.37,2013-03-30 08:05:00,
2013-03-30 10:07:00,75.4,42.6,29.68,SSE,158,8.1,8.1,31,0.00,CLR,,0.00,WeatherDisplay:10.37,2013-03-30 08:07:00,
2013-03-30 10:08:00,75.4,43.5,29.68,SSW,202,8.1,8.1,32,0.00,CLR,,0.00,WeatherDisplay:10.37,2013-03-30 08:08:00,
2013-03-30 10:10:00,75.4,43.5,29.68,SSE,158,4.6,4.6,32,0.00,CLR,,0.00,WeatherDisplay:10.37,2013-03-30 08:10:00,
2013-03-30 10:12:00,74.5,42.7,29.68,SSW,202,5.8,5.8,32,0.00,CLR,,0.00,WeatherDisplay:10.37,2013-03-30 08:12:00,
2013-03-30 10:14:00,73.8,42.0,29.68,SSE,158,10.9,10.9,32,0.00,CLR,,0.00,WeatherDisplay:10.37,2013-03-30 08:14:00,
2013-03-30 10:16:00,73.8,42.0,29.68,South,180,11.5,11.5,32,0.00,CLR,,0.00,WeatherDisplay:10.37,2013-03-30 08:16:00,
2013-03-30 10:17:00,74.1,42.4,29.68,SSW,202,3.5,3.5,32,0.00,CLR,,0.00,WeatherDisplay:10.37,2013-03-30 08:17:00,
2013-03-30 10:19:00,73.8,42.0,29.68,SSW,202,6.9,6.9,32,0.00,CLR,,0.00,WeatherDisplay:10.37,2013-03-30 08:19:00,
2013-03-30 10:21:00,73.6,41.9,29.68,SSW,202,9.2,9.2,32,0.00,CLR,,0.00,WeatherDisplay:10.37,2013-03-30 08:21:00,
2013-03-30 10:22:00,73.2,42.4,29.68,SSE,158,4.6,4.6,33,0.00,CLR,,0.00,WeatherDisplay:10.37,2013-03-30 08:22:00,
2013-03-30 10:23:00,73.2,42.4,29.68,SSW,202,4.6,4.6,33,0.00,CLR,,0.00,WeatherDisplay:10.37,2013-03-30 08:23:00,
2013-03-30 10:24:00,73.2,42.4,29.68,SE,135,5.9,5.9,33,0.00,CLR,,0.00,WeatherDisplay:10.37,2013-03-30 08:24:00,
2013-03-30 10:26:00,73.0,42.2,29.68,South,180,5.8,5.9,33,0.00,CLR,,0.00,WeatherDisplay:10.37,2013-03-30 08:26:00,
2013-03-30 10:27:00,72.7,41.9,29.68,SSW,202,5.8,5.8,33,0.00,CLR,,0.00,WeatherDisplay:10.37,2013-03-30 08:27:00,
2013-03-30 10:28:00,72.5,41.7,29.68,SSW,202,5.8,5.8,33,0.00,CLR,,0.00,WeatherDisplay:10.37,2013-03-30 08:28:00,
2013-03-30 10:29:00,72.3,41.6,29.68,SSW,202,8.1,8.1,33,0.00,CLR,,0.00,WeatherDisplay:10.37,2013-03-30 08:29:00,
2013-03-30 10:31:00,72.1,41.4,29.68,SSW,202,6.9,6.9,33,0.00,CLR,,0.00,WeatherDisplay:10.37,2013-03-30 08:31:00,
2013-03-30 10:32:00,72.3,42.4,29.68,SSW,202,5.8,5.8,34,0.00,CLR,,0.00,WeatherDisplay:10.37,2013-03-30 08:32:00,
2013-03-30 10:33:00,72.3,43.1,29.68,WSW,248,6.0,6.0,35,0.00,CLR,,0.00,WeatherDisplay:10.37,2013-03-30 08:33:00,
2013-03-30 10:34:00,72.5,43.3,29.68,SSW,202,5.8,5.8,35,0.00,CLR,,0.00,WeatherDisplay:10.37,2013-03-30 08:34:00,
2013-03-30 10:36:00,72.5,44.0,29.68,South,180,5.8,5.8,36,0.00,CLR,,0.00,WeatherDisplay:10.37,2013-03-30 08:36:00,
2013-03-30 10:37:00,72.7,44.9,29.68,SSW,202,5.8,5.8,37,0.00,CLR,,0.00,WeatherDisplay:10.37,2013-03-30 08:37:00,
2013-03-30 10:38:00,72.7,44.9,29.68,SSW,202,5.8,5.8,37,0.00,CLR,,0.00,WeatherDisplay:10.37,2013-03-30 08:38:00,
2013-03-30 10:40:00,72.1,44.4,29.68,SSW,202,4.3,4.3,37,0.00,CLR,,0.00,WeatherDisplay:10.37,2013-03-30 08:40:00,
2013-03-30 10:41:00,72.1,44.4,29.68,SW,225,4.6,4.6,37,0.00,CLR,,0.00,WeatherDisplay:10.37,2013-03-30 08:41:00,
2013-03-30 10:43:00,72.3,45.3,29.68,SSW,202,5.8,5.8,38,0.00,CLR,,0.00,WeatherDisplay:10.37,2013-03-30 08:43:00,
2013-03-30 10:45:00,72.3,44.6,29.68,SSW,202,5.8,5.8,37,0.00,CLR,,0.00,WeatherDisplay:10.37,2013-03-30 08:45:00,
2013-03-30 10:47:00,72.3,44.6,29.68,South,180,5.8,5.8,37,0.00,CLR,,0.00,WeatherDisplay:10.37,2013-03-30 08:47:00,
2013-03-30 10:48:00,72.3,44.6,29.68,SSE,158,8.1,8.1,37,0.00,CLR,,0.00,WeatherDisplay:10.37,2013-03-30 08:48:00,
2013-03-30 10:49:00,72.3,44.6,29.68,SSW,202,8.1,8.1,37,0.00,CLR,,0.00,WeatherDisplay:10.37,2013-03-30 08:49:00,
2013-03-30 10:50:00,72.5,44.7,29.68,SSW,202,4.6,4.6,37,0.00,CLR,,0.00,WeatherDisplay:10.37,2013-03-30 08:50:00,
2013-03-30 10:52:00,73.2,45.4,29.68,ENE,68,4.6,4.6,37,0.00,CLR,,0.00,WeatherDisplay:10.37,2013-03-30 08:52:00,
2013-03-30 10:54:00,73.0,42.2,29.68,ESE,112,17.0,17.0,33,0.00,CLR,,0.00,WeatherDisplay:10.37,2013-03-30 08:54:00,
2013-03-30 10:55:00,73.0,43.0,29.68,SSW,202,10.4,10.4,34,0.00,CLR,,0.00,WeatherDisplay:10.37,2013-03-30 08:55:00,
2013-03-30 10:57:00,73.2,43.9,29.68,SSW,202,7.4,7.4,35,0.00,CLR,,0.00,WeatherDisplay:10.37,2013-03-30 08:57:00,
2013-03-30 10:59:00,73.2,43.2,29.68,South,180,8.1,8.1,34,0.00,CLR,,0.00,WeatherDisplay:10.37,2013-03-30 08:59:00,
2013-03-30 11:00:00,73.0,43.0,29.68,SSE,158,6.9,6.9,34,0.00,CLR,,0.00,WeatherDisplay:10.37,2013-03-30 09:00:00,
2013-03-30 11:02:00,73.0,42.2,29.68,SSE,158,13.8,13.8,33,0.00,CLR,,0.00,WeatherDisplay:10.37,2013-03-30 09:02:00,
2013-03-30 11:04:00,73.0,42.2,29.68,SSE,158,8.1,8.1,33,0.00,CLR,,0.00,WeatherDisplay:10.37,2013-03-30 09:04:00,
2013-03-30 11:06:00,73.4,42.5,29.68,SSW,202,12.3,12.3,33,0.00,CLR,,0.00,WeatherDisplay:10.37,2013-03-30 09:06:00,
2013-03-30 11:07:00,73.2,42.4,29.68,SSW,202,12.7,12.7,33,0.00,CLR,,0.00,WeatherDisplay:10.37,2013-03-30 09:07:00,
2013-03-30 11:09:00,73.2,42.4,29.68,SSW,202,10.4,10.4,33,0.00,CLR,,0.00,WeatherDisplay:10.37,2013-03-30 09:09:00,
2013-03-30 11:11:00,74.1,42.4,29.68,SSW,202,11.5,11.5,32,0.00,CLR,,0.00,WeatherDisplay:10.37,2013-03-30 09:11:00,
2013-03-30 11:12:00,74.1,42.4,29.68,South,180,12.7,12.7,32,0.00,CLR,,0.00,WeatherDisplay:10.37,2013-03-30 09:12:00,
2013-03-30 11:14:00,73.8,42.0,29.68,SSE,158,11.5,11.5,32,0.00,CLR,,0.00,WeatherDisplay:10.37,2013-03-30 09:14:00,
2013-03-30 11:17:00,73.8,42.0,29.68,SSE,158,13.8,13.8,32,0.00,CLR,,0.00,WeatherDisplay:10.37,2013-03-30 09:17:00,
2013-03-30 11:18:00,74.1,42.4,29.68,SSE,158,11.5,11.5,32,0.00,CLR,,0.00,WeatherDisplay:10.37,2013-03-30 09:18:00,
2013-03-30 11:19:00,74.5,42.7,29.68,South,180,10.4,10.4,32,0.00,CLR,,0.00,WeatherDisplay:10.37,2013-03-30 09:19:00,
2013-03-30 11:20:00,74.5,42.7,29.68,South,180,10.4,10.4,32,0.00,CLR,,0.00,WeatherDisplay:10.37,2013-03-30 09:20:00,
2013-03-30 11:22:00,74.5,42.7,29.68,SSE,158,13.8,13.8,32,0.00,CLR,,0.00,WeatherDisplay:10.37,2013-03-30 09:22:00,
2013-03-30 11:23:00,74.8,43.0,29.68,SSW,202,8.1,8.7,32,0.00,CLR,,0.00,WeatherDisplay:10.37,2013-03-30 09:23:00,
2013-03-30 11:24:00,74.7,42.8,29.68,SSE,158,9.2,9.2,32,0.00,CLR,,0.00,WeatherDisplay:10.37,2013-03-30 09:24:00,
2013-03-30 11:25:00,75.0,43.1,29.68,SSE,158,9.2,9.2,32,0.00,CLR,,0.00,WeatherDisplay:10.37,2013-03-30 09:25:00,
2013-03-30 11:27:00,75.6,42.8,29.68,SSW,202,11.5,11.5,31,0.00,CLR,,0.00,WeatherDisplay:10.37,2013-03-30 09:27:00,
2013-03-30 11:28:00,75.4,42.6,29.68,SSE,158,16.1,16.1,31,0.00,CLR,,0.00,WeatherDisplay:10.37,2013-03-30 09:28:00,
2013-03-30 11:29:00,74.8,43.0,29.68,South,180,21.9,21.9,32,0.00,CLR,,0.00,WeatherDisplay:10.37,2013-03-30 09:29:00,
2013-03-30 11:30:00,75.0,40.6,29.68,SSE,158,21.9,21.9,29,0.00,CLR,,0.00,WeatherDisplay:10.37,2013-03-30 09:30:00,
2013-03-30 11:33:00,74.7,40.3,29.68,South,180,17.3,17.3,29,0.00,CLR,,0.00,WeatherDisplay:10.37,2013-03-30 09:33:00,
2013-03-30 11:34:00,75.0,43.1,29.68,SW,225,17.3,17.3,32,0.00,CLR,,0.00,WeatherDisplay:10.37,2013-03-30 09:34:00,
2013-03-30 11:38:00,75.2,40.7,29.68,SSE,158,10.4,10.4,29,0.00,CLR,,0.00,WeatherDisplay:10.37,2013-03-30 09:38:00,
2013-03-30 11:39:00,74.5,40.1,29.68,SSE,158,10.7,10.7,29,0.00,CLR,,0.00,WeatherDisplay:10.37,2013-03-30 09:39:00,
2013-03-30 11:43:00,75.2,42.5,29.68,SE,135,15.0,15.0,31,0.00,CLR,,0.00,WeatherDisplay:10.37,2013-03-30 09:43:00,
2013-03-30 11:44:00,75.0,40.6,29.68,SSE,158,10.4,10.4,29,0.00,CLR,,0.00,WeatherDisplay:10.37,2013-03-30 09:44:00,
2013-03-30 11:45:00,75.0,40.6,29.68,SE,135,10.4,10.4,29,0.00,CLR,,0.00,WeatherDisplay:10.37,2013-03-30 09:45:00,
2013-03-30 11:48:00,74.8,43.0,29.68,SSW,202,10.4,10.4,32,0.00,CLR,,0.00,WeatherDisplay:10.37,2013-03-30 09:48:00,
2013-03-30 11:49:00,74.8,43.0,29.68,SSW,202,12.7,12.7,32,0.00,CLR,,0.00,WeatherDisplay:10.37,2013-03-30 09:49:00,
2013-03-30 11:50:00,74.8,43.0,29.68,SSE,158,12.7,12.7,32,0.00,CLR,,0.00,WeatherDisplay:10.37,2013-03-30 09:50:00,
2013-03-30 11:54:00,75.2,42.5,29.68,ESE,112,15.0,15.0,31,0.00,CLR,,0.00,WeatherDisplay:10.37,2013-03-30 09:54:00,
2013-03-30 11:55:00,74.5,42.7,29.68,SSE,158,11.8,11.8,32,0.00,CLR,,0.00,WeatherDisplay:10.37,2013-03-30 09:55:00,
2013-03-30 11:59:00,73.6,41.9,29.68,South,180,11.5,11.5,32,0.00,CLR,,0.00,WeatherDisplay:10.37,2013-03-30 09:59:00,
2013-03-30 12:00:00,73.9,42.2,29.68,South,180,12.7,12.7,32,0.00,CLR,,0.00,WeatherDisplay:10.37,2013-03-30 10:00:00,
2013-03-30 12:04:00,74.3,42.5,29.68,SE,135,11.5,11.5,32,0.00,CLR,,0.00,WeatherDisplay:10.37,2013-03-30 10:04:00,
2013-03-30 12:05:00,74.1,42.4,29.68,SSE,158,10.4,10.5,32,0.00,CLR,,0.00,WeatherDisplay:10.37,2013-03-30 10:05:00,
2013-03-30 12:09:00,74.7,42.8,29.68,SE,135,8.1,8.1,32,0.00,CLR,,0.00,WeatherDisplay:10.37,2013-03-30 10:09:00,
2013-03-30 12:10:00,74.7,42.8,29.68,SSE,158,8.1,8.5,32,0.00,CLR,,0.00,WeatherDisplay:10.37,2013-03-30 10:10:00,
2013-03-30 12:14:00,74.7,42.8,29.68,SE,135,17.8,17.8,32,0.00,CLR,,0.00,WeatherDisplay:10.37,2013-03-30 10:14:00,
2013-03-30 12:15:00,74.3,42.5,29.68,South,180,16.1,16.1,32,0.00,CLR,,0.00,WeatherDisplay:10.37,2013-03-30 10:15:00,
2013-03-30 12:19:00,74.8,43.0,29.68,SSE,158,13.5,13.5,32,0.00,CLR,,0.00,WeatherDisplay:10.37,2013-03-30 10:19:00,
2013-03-30 12:20:00,74.8,43.0,29.68,SSE,158,12.7,12.7,32,0.00,CLR,,0.00,WeatherDisplay:10.37,2013-03-30 10:20:00,
2013-03-30 12:24:00,75.6,43.6,29.68,SSW,202,8.1,8.1,32,0.00,CLR,,0.00,WeatherDisplay:10.37,2013-03-30 10:24:00,
2013-03-30 12:25:00,75.2,43.3,29.68,SSE,158,9.4,9.4,32,0.00,CLR,,0.00,WeatherDisplay:10.37,2013-03-30 10:25:00,
2013-03-30 12:29:00,75.6,43.6,29.68,South,180,7.6,7.6,32,0.00,CLR,,0.00,WeatherDisplay:10.37,2013-03-30 10:29:00,
2013-03-30 12:30:00,75.6,43.6,29.68,South,180,7.6,7.6,32,0.00,CLR,,0.00,WeatherDisplay:10.37,2013-03-30 10:30:00,
2013-03-30 12:34:00,74.7,42.8,29.68,SSE,158,12.8,12.8,32,0.00,CLR,,0.00,WeatherDisplay:10.37,2013-03-30 10:34:00,
2013-03-30 12:35:00,74.7,42.8,29.68,SSW,202,10.4,10.4,32,0.00,CLR,,0.00,WeatherDisplay:10.37,2013-03-30 10:35:00,
2013-03-30 12:36:00,74.8,43.0,29.68,SW,225,12.7,12.7,32,0.00,CLR,,0.00,WeatherDisplay:10.37,2013-03-30 10:36:00,
2013-03-30 12:40:00,74.5,44.3,29.68,SW,225,5.9,5.9,34,0.00,CLR,,0.00,WeatherDisplay:10.37,2013-03-30 10:40:00,
2013-03-30 12:42:00,73.9,44.5,29.68,SSW,202,8.1,8.1,35,0.00,CLR,,0.00,WeatherDisplay:10.37,2013-03-30 10:42:00,
2013-03-30 12:45:00,74.5,45.0,29.68,SSE,158,6.2,6.2,35,0.00,CLR,,0.00,WeatherDisplay:10.37,2013-03-30 10:45:00,
2013-03-30 12:47:00,74.5,44.3,29.68,SSW,202,4.6,6.2,34,0.00,CLR,,0.00,WeatherDisplay:10.37,2013-03-30 10:47:00,
2013-03-30 12:50:00,74.3,44.9,29.68,SSW,202,5.8,5.8,35,0.00,CLR,,0.00,WeatherDisplay:10.37,2013-03-30 10:50:00,
2013-03-30 12:52:00,73.6,45.0,29.68,South,180,10.4,10.4,36,0.00,CLR,,0.00,WeatherDisplay:10.37,2013-03-30 10:52:00,
2013-03-30 12:55:00,73.6,45.0,29.65,SSE,158,7.1,7.1,36,0.00,CLR,,0.00,WeatherDisplay:10.37,2013-03-30 10:55:00,
2013-03-30 12:56:00,73.8,44.4,29.65,SE,135,6.9,6.9,35,0.00,CLR,,0.00,WeatherDisplay:10.37,2013-03-30 10:56:00,
2013-03-30 12:58:00,73.6,41.9,29.65,SSE,158,20.4,20.4,32,0.00,CLR,,0.00,WeatherDisplay:10.37,2013-03-30 10:58:00,
2013-03-30 13:00:00,73.8,42.9,29.65,SSW,202,9.2,9.2,33,0.00,CLR,,0.00,WeatherDisplay:10.37,2013-03-30 11:00:00,
2013-03-30 13:01:00,73.6,44.2,29.65,SSW,202,9.2,9.2,35,0.00,CLR,,0.00,WeatherDisplay:10.37,2013-03-30 11:01:00,
2013-03-30 13:03:00,73.4,42.5,29.65,SSE,158,17.3,17.3,33,0.00,CLR,,0.00,WeatherDisplay:10.37,2013-03-30 11:03:00,
2013-03-30 13:06:00,73.9,42.2,29.65,SSE,158,16.1,16.1,32,0.00,CLR,,0.00,WeatherDisplay:10.37,2013-03-30 11:06:00,
2013-03-30 13:08:00,74.1,42.4,29.65,SE,135,12.7,12.7,32,0.00,CLR,,0.00,WeatherDisplay:10.37,2013-03-30 11:08:00,
2013-03-30 13:11:00,75.6,42.8,29.68,SE,135,8.1,8.1,31,0.00,CLR,,0.00,WeatherDisplay:10.37,2013-03-30 11:11:00,
2013-03-30 13:13:00,74.8,43.0,29.68,SSE,158,19.6,19.6,32,0.00,CLR,,0.00,WeatherDisplay:10.37,2013-03-30 11:13:00,
2013-03-30 13:14:00,74.7,42.8,29.68,SSW,202,17.6,17.6,32,0.00,CLR,,0.00,WeatherDisplay:10.37,2013-03-30 11:14:00,
2013-03-30 13:16:00,74.1,42.4,29.68,SSE,158,15.0,15.0,32,0.00,CLR,,0.00,WeatherDisplay:10.37,2013-03-30 11:16:00,
2013-03-30 13:18:00,74.3,42.5,29.68,SSE,158,17.3,17.3,32,0.00,CLR,,0.00,WeatherDisplay:10.37,2013-03-30 11:18:00,
2013-03-30 13:19:00,74.7,42.8,29.68,SE,135,15.2,15.2,32,0.00,CLR,,0.00,WeatherDisplay:10.37,2013-03-30 11:19:00,
2013-03-30 13:22:00,75.2,42.5,29.68,ESE,112,8.1,8.1,31,0.00,CLR,,0.00,WeatherDisplay:10.37,2013-03-30 11:22:00,
2013-03-30 13:23:00,75.2,42.5,29.68,SSW,202,8.1,8.1,31,0.00,CLR,,0.00,WeatherDisplay:10.37,2013-03-30 11:23:00,
2013-03-30 13:24:00,75.7,42.9,29.68,South,180,6.9,6.9,31,0.00,CLR,,0.00,WeatherDisplay:10.37,2013-03-30 11:24:00,
2013-03-30 13:27:00,75.7,42.9,29.68,SSE,158,17.3,17.3,31,0.00,CLR,,0.00,WeatherDisplay:10.37,2013-03-30 11:27:00,
2013-03-30 13:28:00,75.4,40.9,29.68,SSE,158,17.3,17.3,29,0.00,CLR,,0.00,WeatherDisplay:10.37,2013-03-30 11:28:00,
2013-03-30 13:29:00,75.6,42.8,29.68,WSW,248,15.0,15.0,31,0.00,CLR,,0.00,WeatherDisplay:10.37,2013-03-30 11:29:00,
2013-03-30 13:32:00,75.6,42.8,29.68,SSE,158,7.8,7.8,31,0.00,CLR,,0.00,WeatherDisplay:10.37,2013-03-30 11:32:00,
2013-03-30 13:33:00,75.6,42.8,29.68,SE,135,12.3,12.3,31,0.00,CLR,,0.00,WeatherDisplay:10.37,2013-03-30 11:33:00,
2013-03-30 13:34:00,75.0,40.6,29.68,South,180,12.7,12.7,29,0.00,CLR,,0.00,WeatherDisplay:10.37,2013-03-30 11:34:00,
2013-03-30 13:37:00,74.7,42.8,29.68,SSE,158,15.0,15.0,32,0.00,CLR,,0.00,WeatherDisplay:10.37,2013-03-30 11:37:00,
2013-03-30 13:38:00,74.5,40.1,29.68,SE,135,15.0,15.0,29,0.00,CLR,,0.00,WeatherDisplay:10.37,2013-03-30 11:38:00,
2013-03-30 13:39:00,74.1,39.8,29.68,ESE,112,16.1,16.1,29,0.00,CLR,,0.00,WeatherDisplay:10.37,2013-03-30 11:39:00,
2013-03-30 13:42:00,73.9,42.2,29.68,SSE,158,10.4,10.4,32,0.00,CLR,,0.00,WeatherDisplay:10.37,2013-03-30 11:42:00,
2013-03-30 13:43:00,73.9,42.2,29.68,SSW,202,11.5,11.5,32,0.00,CLR,,0.00,WeatherDisplay:10.37,2013-03-30 11:43:00,
2013-03-30 13:44:00,73.9,42.2,29.68,South,180,18.5,18.5,32,0.00,CLR,,0.00,WeatherDisplay:10.37,2013-03-30 11:44:00,
2013-03-30 13:45:00,73.8,39.5,29.68,SSE,158,18.4,18.4,29,0.00,CLR,,0.00,WeatherDisplay:10.37,2013-03-30 11:45:00,
2013-03-30 13:47:00,74.1,42.4,29.68,SSE,158,10.4,10.4,32,0.00,CLR,,0.00,WeatherDisplay:10.37,2013-03-30 11:47:00,
2013-03-30 13:48:00,74.1,42.4,29.68,WSW,248,13.8,13.8,32,0.00,CLR,,0.00,WeatherDisplay:10.37,2013-03-30 11:48:00,
2013-03-30 13:49:00,74.1,42.4,29.68,West,270,13.8,13.8,32,0.00,CLR,,0.00,WeatherDisplay:10.37,2013-03-30 11:49:00,
2013-03-30 13:50:00,74.1,42.4,29.68,SE,135,15.0,15.0,32,0.00,CLR,,0.00,WeatherDisplay:10.37,2013-03-30 11:50:00,
2013-03-30 13:52:00,74.3,42.5,29.68,SSE,158,13.8,13.8,32,0.00,CLR,,0.00,WeatherDisplay:10.37,2013-03-30 11:52:00,
2013-03-30 13:53:00,74.1,42.4,29.68,SSW,202,12.7,12.7,32,0.00,CLR,,0.00,WeatherDisplay:10.37,2013-03-30 11:53:00,
2013-03-30 13:54:00,74.1,42.4,29.68,SE,135,10.4,10.4,32,0.00,CLR,,0.00,WeatherDisplay:10.37,2013-03-30 11:54:00,
2013-03-30 13:55:00,74.1,42.4,29.68,SSE,158,10.4,10.4,32,0.00,CLR,,0.00,WeatherDisplay:10.37,2013-03-30 11:55:00,
2013-03-30 13:58:00,74.1,42.4,29.68,SSE,158,10.0,10.0,32,0.00,CLR,,0.00,WeatherDisplay:10.37,2013-03-30 11:58:00,
2013-03-30 13:59:00,74.3,42.5,29.68,ESE,112,10.4,10.4,32,0.00,CLR,,0.00,WeatherDisplay:10.37,2013-03-30 11:59:00,
2013-03-30 14:00:00,75.0,43.1,29.68,South,180,10.4,10.4,32,0.00,CLR,,0.00,WeatherDisplay:10.37,2013-03-30 12:00:00,
2013-03-30 14:03:00,75.6,42.8,29.68,South,180,9.2,9.2,31,0.00,CLR,,0.00,WeatherDisplay:10.37,2013-03-30 12:03:00,
2013-03-30 14:04:00,75.6,42.8,29.68,SE,135,10.4,10.4,31,0.00,CLR,,0.00,WeatherDisplay:10.37,2013-03-30 12:04:00,
2013-03-30 14:05:00,75.6,42.8,29.68,SE,135,10.4,10.4,31,0.00,CLR,,0.00,WeatherDisplay:10.37,2013-03-30 12:05:00,
2013-03-30 14:08:00,75.6,42.8,29.68,SSE,158,5.9,6.4,31,0.00,CLR,,0.00,WeatherDisplay:10.37,2013-03-30 12:08:00,
2013-03-30 14:09:00,75.6,42.8,29.68,SE,135,9.2,9.2,31,0.00,CLR,,0.00,WeatherDisplay:10.37,2013-03-30 12:09:00,
2013-03-30 14:10:00,75.6,42.8,29.65,SSE,158,9.2,9.2,31,0.00,CLR,,0.00,WeatherDisplay:10.37,2013-03-30 12:10:00,
2013-03-30 14:11:00,75.2,40.7,29.65,ESE,112,10.9,10.9,29,0.00,CLR,,0.00,WeatherDisplay:10.37,2013-03-30 12:11:00,
2013-03-30 14:13:00,75.0,43.1,29.65,SE,135,11.5,11.5,32,0.00,CLR,,0.00,WeatherDisplay:10.37,2013-03-30 12:13:00,
2013-03-30 14:14:00,74.7,40.3,29.65,ESE,112,13.2,13.2,29,0.00,CLR,,0.00,WeatherDisplay:10.37,2013-03-30 12:14:00,
2013-03-30 14:15:00,74.5,40.1,29.65,ESE,112,17.3,17.3,29,0.00,CLR,,0.00,WeatherDisplay:10.37,2013-03-30 12:15:00,
2013-03-30 14:16:00,74.5,40.1,29.65,SSE,158,14.5,14.5,29,0.00,CLR,,0.00,WeatherDisplay:10.37,2013-03-30 12:16:00,
2013-03-30 14:18:00,74.1,42.4,29.65,ESE,112,6.9,6.9,32,0.00,CLR,,0.00,WeatherDisplay:10.37,2013-03-30 12:18:00,
2013-03-30 14:19:00,73.9,39.7,29.65,WSW,248,6.9,6.9,29,0.00,CLR,,0.00,WeatherDisplay:10.37,2013-03-30 12:19:00,
2013-03-30 14:20:00,73.9,42.2,29.65,SSE,158,10.4,10.4,32,0.00,CLR,,0.00,WeatherDisplay:10.37,2013-03-30 12:20:00,
2013-03-30 14:21:00,73.8,42.0,29.65,South,180,12.7,12.7,32,0.00,CLR,,0.00,WeatherDisplay:10.37,2013-03-30 12:21:00,
2013-03-30 14:23:00,73.8,42.0,29.65,South,180,22.1,22.1,32,0.00,CLR,,0.00,WeatherDisplay:10.37,2013-03-30 12:23:00,
2013-03-30 14:24:00,73.2,41.6,29.65,South,180,21.9,21.9,32,0.00,CLR,,0.00,WeatherDisplay:10.37,2013-03-30 12:24:00,
2013-03-30 14:25:00,73.6,41.9,29.65,SSE,158,21.9,21.9,32,0.00,CLR,,0.00,WeatherDisplay:10.37,2013-03-30 12:25:00,
2013-03-30 14:27:00,73.8,42.0,29.65,SSE,158,8.1,8.1,32,0.00,CLR,,0.00,WeatherDisplay:10.37,2013-03-30 12:27:00,
2013-03-30 14:28:00,73.8,42.0,29.65,SSE,158,6.9,6.9,32,0.00,CLR,,0.00,WeatherDisplay:10.37,2013-03-30 12:28:00,
2013-03-30 14:29:00,73.8,42.0,29.65,SE,135,9.8,9.8,32,0.00,CLR,,0.00,WeatherDisplay:10.37,2013-03-30 12:29:00,
2013-03-30 14:30:00,73.2,41.6,29.65,NNE,22,18.4,18.4,32,0.00,CLR,,0.00,WeatherDisplay:10.37,2013-03-30 12:30:00,
2013-03-30 14:32:00,72.9,41.3,29.65,SSE,158,17.3,17.3,32,0.00,CLR,,0.00,WeatherDisplay:10.37,2013-03-30 12:32:00,
2013-03-30 14:33:00,72.7,41.1,29.65,ESE,112,15.4,15.4,32,0.00,CLR,,0.00,WeatherDisplay:10.37,2013-03-30 12:33:00,
2013-03-30 14:34:00,72.5,41.7,29.65,SE,135,13.8,13.8,33,0.00,CLR,,0.00,WeatherDisplay:10.37,2013-03-30 12:34:00,
2013-03-30 14:35:00,72.5,41.7,29.65,SSE,158,15.0,15.0,33,0.00,CLR,,0.00,WeatherDisplay:10.37,2013-03-30 12:35:00,
2013-03-30 14:37:00,72.5,41.7,29.65,ESE,112,16.1,16.1,33,0.00,CLR,,0.00,WeatherDisplay:10.37,2013-03-30 12:37:00,
2013-03-30 14:38:00,72.3,41.6,29.65,SE,135,13.8,13.8,33,0.00,CLR,,0.00,WeatherDisplay:10.37,2013-03-30 12:38:00,
2013-03-30 14:39:00,72.5,41.7,29.68,ESE,112,13.8,13.8,33,0.00,CLR,,0.00,WeatherDisplay:10.37,2013-03-30 12:39:00,
2013-03-30 14:40:00,72.5,41.7,29.68,SSW,202,13.8,13.8,33,0.00,CLR,,0.00,WeatherDisplay:10.37,2013-03-30 12:40:00,
2013-03-30 14:43:00,72.3,41.6,29.68,WNW,292,12.7,12.7,33,0.00,CLR,,0.00,WeatherDisplay:10.37,2013-03-30 12:43:00,
2013-03-30 14:44:00,72.7,41.9,29.68,SSW,202,5.8,5.8,33,0.00,CLR,,0.00,WeatherDisplay:10.37,2013-03-30 12:44:00,
2013-03-30 14:45:00,72.9,42.1,29.68,SE,135,12.8,12.8,33,0.00,CLR,,0.00,WeatherDisplay:10.37,2013-03-30 12:45:00,
2013-03-30 14:48:00,72.9,42.1,29.68,ESE,112,12.7,12.7,33,0.00,CLR,,0.00,WeatherDisplay:10.37,2013-03-30 12:48:00,
2013-03-30 14:50:00,72.9,42.1,29.68,SSE,158,11.5,11.5,33,0.00,CLR,,0.00,WeatherDisplay:10.37,2013-03-30 12:50:00,
2013-03-30 14:53:00,73.4,41.7,29.68,SSE,158,17.3,17.3,32,0.00,CLR,,0.00,WeatherDisplay:10.37,2013-03-30 12:53:00,
2013-03-30 14:55:00,73.2,42.4,29.65,SSE,158,12.7,12.7,33,0.00,CLR,,0.00,WeatherDisplay:10.37,2013-03-30 12:55:00,
2013-03-30 14:58:00,73.4,41.7,29.65,NE,45,19.6,19.6,32,0.00,CLR,,0.00,WeatherDisplay:10.37,2013-03-30 12:58:00,
2013-03-30 14:59:00,73.4,41.7,29.65,ESE,112,19.6,19.6,32,0.00,CLR,,0.00,WeatherDisplay:10.37,2013-03-30 12:59:00,
2013-03-30 15:00:00,73.2,42.3,29.65,SE,139,9.0,20.0,33,0.00,CLR,,0.00,WeatherDisplay:10.37,2013-03-30 13:00:00,
2013-03-30 15:03:00,73.8,42.0,29.65,SE,135,4.6,6.0,32,0.00,CLR,,0.00,WeatherDisplay:10.37,2013-03-30 13:03:00,
2013-03-30 15:04:00,74.1,42.4,29.65,WSW,248,4.6,4.6,32,0.00,CLR,,0.00,WeatherDisplay:10.37,2013-03-30 13:04:00,
2013-03-30 15:05:00,74.3,42.5,29.65,SE,135,12.7,12.7,32,0.00,CLR,,0.00,WeatherDisplay:10.37,2013-03-30 13:05:00,
2013-03-30 15:08:00,73.9,42.2,29.65,SE,135,13.2,13.2,32,0.00,CLR,,0.00,WeatherDisplay:10.37,2013-03-30 13:08:00,
2013-03-30 15:09:00,74.1,42.4,29.65,ESE,112,13.8,13.8,32,0.00,CLR,,0.00,WeatherDisplay:10.37,2013-03-30 13:09:00,
2013-03-30 15:10:00,74.1,42.4,29.65,SE,143,6.0,14.0,32,0.00,CLR,,0.00,WeatherDisplay:10.37,2013-03-30 13:10:00,
2013-03-30 15:13:00,73.6,41.9,29.65,ESE,112,14.7,14.7,32,0.00,CLR,,0.00,WeatherDisplay:10.37,2013-03-30 13:13:00,
2013-03-30 15:14:00,73.8,42.0,29.65,SSW,202,15.0,15.0,32,0.00,CLR,,0.00,WeatherDisplay:10.37,2013-03-30 13:14:00,
2013-03-30 15:15:00,73.8,42.0,29.65,SE,135,6.9,6.9,32,0.00,CLR,,0.00,WeatherDisplay:10.37,2013-03-30 13:15:00,
2013-03-30 15:18:00,74.1,43.2,29.65,SE,135,13.2,13.2,33,0.00,CLR,,0.00,WeatherDisplay:10.37,2013-03-30 13:18:00,
2013-03-30 15:19:00,73.9,43.0,29.65,SSE,158,13.8,13.8,33,0.00,CLR,,0.00,WeatherDisplay:10.37,2013-03-30 13:19:00,
2013-03-30 15:20:00,73.8,42.9,29.65,SSE,158,19.4,19.4,33,0.00,CLR,,0.00,WeatherDisplay:10.37,2013-03-30 13:20:00,
2013-03-30 15:23:00,73.2,42.4,29.65,West,270,21.9,21.9,33,0.00,CLR,,0.00,WeatherDisplay:10.37,2013-03-30 13:23:00,
2013-03-30 15:25:00,73.0,42.2,29.65,SE,135,12.5,12.5,33,0.00,CLR,,0.00,WeatherDisplay:10.37,2013-03-30 13:25:00,
2013-03-30 15:26:00,72.9,42.1,29.65,ESE,112,13.8,13.8,33,0.00,CLR,,0.00,WeatherDisplay:10.37,2013-03-30 13:26:00,
2013-03-30 15:29:00,72.5,41.7,29.65,SSE,158,15.4,15.4,33,0.00,CLR,,0.00,WeatherDisplay:10.37,2013-03-30 13:29:00,
2013-03-30 15:30:00,72.7,41.9,29.65,ENE,68,15.0,15.0,33,0.00,CLR,,0.00,WeatherDisplay:10.37,2013-03-30 13:30:00,
2013-03-30 15:31:00,72.9,42.1,29.65,SSE,158,17.6,17.6,33,0.00,CLR,,0.00,WeatherDisplay:10.37,2013-03-30 13:31:00,
2013-03-30 15:34:00,72.5,41.7,29.65,SSE,158,24.2,24.2,33,0.00,CLR,,0.00,WeatherDisplay:10.37,2013-03-30 13:34:00,
2013-03-30 15:35:00,72.3,41.6,29.65,SE,135,16.1,16.1,33,0.00,CLR,,0.00,WeatherDisplay:10.37,2013-03-30 13:35:00,
2013-03-30 15:36:00,72.5,41.7,29.65,SSE,158,12.7,12.7,33,0.00,CLR,,0.00,WeatherDisplay:10.37,2013-03-30 13:36:00,
2013-03-30 15:39:00,72.3,41.6,29.62,SSW,202,13.8,13.8,33,0.00,CLR,,0.00,WeatherDisplay:10.37,2013-03-30 13:39:00,
2013-03-30 15:40:00,72.3,41.6,29.62,SSE,158,23.0,23.0,33,0.00,CLR,,0.00,WeatherDisplay:10.37,2013-03-30 13:40:00,
2013-03-30 15:41:00,72.3,41.6,29.62,SSE,158,18.4,18.4,33,0.00,CLR,,0.00,WeatherDisplay:10.37,2013-03-30 13:41:00,
2013-03-30 15:44:00,72.5,41.7,29.62,SSE,158,11.5,11.5,33,0.00,CLR,,0.00,WeatherDisplay:10.37,2013-03-30 13:44:00,
2013-03-30 15:45:00,73.0,42.2,29.62,SSE,158,11.5,11.5,33,0.00,CLR,,0.00,WeatherDisplay:10.37,2013-03-30 13:45:00,
2013-03-30 15:47:00,73.0,42.2,29.62,SSE,158,10.7,10.7,33,0.00,CLR,,0.00,WeatherDisplay:10.37,2013-03-30 13:47:00,
2013-03-30 15:49:00,73.4,42.5,29.62,ESE,112,12.8,12.8,33,0.00,CLR,,0.00,WeatherDisplay:10.37,2013-03-30 13:49:00,
2013-03-30 15:50:00,73.6,42.7,29.62,South,180,12.7,12.7,33,0.00,CLR,,0.00,WeatherDisplay:10.37,2013-03-30 13:50:00,
2013-03-30 15:52:00,73.8,42.9,29.62,SSE,158,6.9,6.9,33,0.00,CLR,,0.00,WeatherDisplay:10.37,2013-03-30 13:52:00,
2013-03-30 15:55:00,73.9,43.0,29.62,SSE,158,12.7,12.7,33,0.00,CLR,,0.00,WeatherDisplay:10.37,2013-03-30 13:55:00,
2013-03-30 15:56:00,73.8,42.9,29.62,SSE,158,8.1,8.1,33,0.00,CLR,,0.00,WeatherDisplay:10.37,2013-03-30 13:56:00,
2013-03-30 15:57:00,73.9,43.0,29.62,SSE,158,12.7,12.7,33,0.00,CLR,,0.00,WeatherDisplay:10.37,2013-03-30 13:57:00,
2013-03-30 16:00:00,73.8,42.9,29.62,SSE,158,15.0,15.0,33,0.00,CLR,,0.00,WeatherDisplay:10.37,2013-03-30 14:00:00,
2013-03-30 16:02:00,73.4,42.5,29.62,SE,135,16.1,16.1,33,0.00,CLR,,0.00,WeatherDisplay:10.37,2013-03-30 14:02:00,
2013-03-30 16:05:00,73.4,42.5,29.62,SW,225,15.0,15.0,33,0.00,CLR,,0.00,WeatherDisplay:10.37,2013-03-30 14:05:00,
2013-03-30 16:07:00,73.8,42.9,29.62,SSE,158,18.4,18.4,33,0.00,CLR,,0.00,WeatherDisplay:10.37,2013-03-30 14:07:00,
2013-03-30 16:10:00,73.0,42.2,29.62,SSE,158,17.3,17.3,33,0.00,CLR,,0.00,WeatherDisplay:10.37,2013-03-30 14:10:00,
2013-03-30 16:11:00,72.9,42.1,29.62,SSE,158,15.4,15.4,33,0.00,CLR,,0.00,WeatherDisplay:10.37,2013-03-30 14:11:00,
2013-03-30 16:12:00,72.9,42.8,29.62,SSE,158,15.0,15.0,34,0.00,CLR,,0.00,WeatherDisplay:10.37,2013-03-30 14:12:00,
2013-03-30 16:15:00,72.7,41.9,29.62,East,90,14.0,14.0,33,0.00,CLR,,0.00,WeatherDisplay:10.37,2013-03-30 14:15:00,
2013-03-30 16:17:00,72.7,41.9,29.62,SSE,158,19.6,19.6,33,0.00,CLR,,0.00,WeatherDisplay:10.37,2013-03-30 14:17:00,
2013-03-30 16:20:00,72.5,41.7,29.62,SSE,158,20.7,20.7,33,0.00,CLR,,0.00,WeatherDisplay:10.37,2013-03-30 14:20:00,
2013-03-30 16:22:00,72.5,41.7,29.62,ENE,68,13.2,13.2,33,0.00,CLR,,0.00,WeatherDisplay:10.37,2013-03-30 14:22:00,
2013-03-30 16:25:00,72.3,41.6,29.62,South,180,19.6,19.6,33,0.00,CLR,,0.00,WeatherDisplay:10.37,2013-03-30 14:25:00,
2013-03-30 16:27:00,72.1,41.4,29.62,ESE,112,13.8,13.8,33,0.00,CLR,,0.00,WeatherDisplay:10.37,2013-03-30 14:27:00,
2013-03-30 16:28:00,72.3,41.6,29.62,SSE,158,17.3,17.3,33,0.00,CLR,,0.00,WeatherDisplay:10.37,2013-03-30 14:28:00,
2013-03-30 16:31:00,72.9,42.1,29.62,SSE,158,5.8,5.8,33,0.00,CLR,,0.00,WeatherDisplay:10.37,2013-03-30 14:31:00,
2013-03-30 16:32:00,72.9,42.1,29.62,SSE,158,17.0,17.0,33,0.00,CLR,,0.00,WeatherDisplay:10.37,2013-03-30 14:32:00,
2013-03-30 16:33:00,72.7,41.9,29.62,NE,45,17.3,17.3,33,0.00,CLR,,0.00,WeatherDisplay:10.37,2013-03-30 14:33:00,
2013-03-30 16:36:00,72.7,41.9,29.62,SE,135,16.6,16.6,33,0.00,CLR,,0.00,WeatherDisplay:10.37,2013-03-30 14:36:00,
2013-03-30 16:38:00,72.9,42.1,29.62,SSE,158,14.5,14.5,33,0.00,CLR,,0.00,WeatherDisplay:10.37,2013-03-30 14:38:00,
2013-03-30 16:39:00,72.5,41.7,29.62,SSE,158,15.0,15.0,33,0.00,CLR,,0.00,WeatherDisplay:10.37,2013-03-30 14:39:00,
2013-03-30 16:41:00,72.5,41.7,29.62,ESE,112,17.3,17.3,33,0.00,CLR,,0.00,WeatherDisplay:10.37,2013-03-30 14:41:00,
2013-03-30 16:43:00,72.5,41.7,29.62,SSW,202,11.8,11.8,33,0.00,CLR,,0.00,WeatherDisplay:10.37,2013-03-30 14:43:00,
2013-03-30 16:44:00,72.5,41.7,29.62,ESE,112,11.5,11.5,33,0.00,CLR,,0.00,WeatherDisplay:10.37,2013-03-30 14:44:00,
2013-03-30 16:47:00,72.9,42.1,29.62,SSE,158,12.7,12.7,33,0.00,CLR,,0.00,WeatherDisplay:10.37,2013-03-30 14:47:00,
2013-03-30 16:48:00,72.9,42.1,29.62,SSE,158,10.4,10.4,33,0.00,CLR,,0.00,WeatherDisplay:10.37,2013-03-30 14:48:00,
2013-03-30 16:49:00,73.0,42.2,29.62,SSE,158,16.1,16.1,33,0.00,CLR,,0.00,WeatherDisplay:10.37,2013-03-30 14:49:00,
2013-03-30 16:52:00,73.2,42.4,29.62,SSE,158,8.1,8.1,33,0.00,CLR,,0.00,WeatherDisplay:10.37,2013-03-30 14:52:00,
2013-03-30 16:53:00,73.2,42.4,29.62,SSE,158,13.8,13.8,33,0.00,CLR,,0.00,WeatherDisplay:10.37,2013-03-30 14:53:00,
2013-03-30 16:54:00,73.0,42.2,29.62,East,90,15.6,15.6,33,0.00,CLR,,0.00,WeatherDisplay:10.37,2013-03-30 14:54:00,
2013-03-30 16:57:00,72.7,41.9,29.62,SE,135,12.7,12.7,33,0.00,CLR,,0.00,WeatherDisplay:10.37,2013-03-30 14:57:00,
2013-03-30 16:58:00,72.7,41.9,29.62,SE,135,11.5,11.5,33,0.00,CLR,,0.00,WeatherDisplay:10.37,2013-03-30 14:58:00,
2013-03-30 16:59:00,72.7,42.7,29.62,ESE,112,11.5,11.5,34,0.00,CLR,,0.00,WeatherDisplay:10.37,2013-03-30 14:59:00,
2013-03-30 17:03:00,72.7,41.9,29.62,South,180,9.2,9.2,33,0.00,CLR,,0.00,WeatherDisplay:10.37,2013-03-30 15:03:00,
2013-03-30 17:04:00,72.7,41.9,29.62,SSE,158,8.1,8.1,33,0.00,CLR,,0.00,WeatherDisplay:10.37,2013-03-30 15:04:00,
2013-03-30 17:08:00,72.3,42.4,29.62,SE,135,12.7,12.7,34,0.00,CLR,,0.00,WeatherDisplay:10.37,2013-03-30 15:08:00,
2013-03-30 17:09:00,72.3,42.4,29.59,NNE,22,12.7,12.7,34,0.00,CLR,,0.00,WeatherDisplay:10.37,2013-03-30 15:09:00,
2013-03-30 17:13:00,72.3,41.6,29.59,SE,135,10.4,10.4,33,0.00,CLR,,0.00,WeatherDisplay:10.37,2013-03-30 15:13:00,
2013-03-30 17:14:00,72.3,41.6,29.59,SSE,158,4.6,4.6,33,0.00,CLR,,0.00,WeatherDisplay:10.37,2013-03-30 15:14:00,
2013-03-30 17:18:00,72.3,41.6,29.59,SE,135,4.6,4.6,33,0.00,CLR,,0.00,WeatherDisplay:10.37,2013-03-30 15:18:00,
2013-03-30 17:19:00,72.5,41.7,29.59,SE,135,6.9,6.9,33,0.00,CLR,,0.00,WeatherDisplay:10.37,2013-03-30 15:19:00,
2013-03-30 17:20:00,72.5,41.7,29.59,ESE,112,6.9,6.9,33,0.00,CLR,,0.00,WeatherDisplay:10.37,2013-03-30 15:20:00,
2013-03-30 17:24:00,72.3,41.6,29.59,ESE,112,10.4,10.4,33,0.00,CLR,,0.00,WeatherDisplay:10.37,2013-03-30 15:24:00,
2013-03-30 17:25:00,72.1,41.4,29.62,SE,135,9.2,9.2,33,0.00,CLR,,0.00,WeatherDisplay:10.37,2013-03-30 15:25:00,
2013-03-30 17:29:00,72.0,41.3,29.62,SSE,158,12.8,12.8,33,0.00,CLR,,0.00,WeatherDisplay:10.37,2013-03-30 15:29:00,
2013-03-30 17:30:00,71.8,41.1,29.62,SSE,158,12.7,12.7,33,0.00,CLR,,0.00,WeatherDisplay:10.37,2013-03-30 15:30:00,
2013-03-30 17:34:00,72.0,41.3,29.62,NE,45,5.8,5.8,33,0.00,CLR,,0.00,WeatherDisplay:10.37,2013-03-30 15:34:00,
2013-03-30 17:35:00,72.0,41.3,29.62,ESE,112,5.8,5.8,33,0.00,CLR,,0.00,WeatherDisplay:10.37,2013-03-30 15:35:00,
2013-03-30 17:39:00,71.6,41.0,29.62,ESE,112,10.4,10.4,33,0.00,CLR,,0.00,WeatherDisplay:10.37,2013-03-30 15:39:00,
2013-03-30 17:40:00,71.6,41.0,29.62,SSE,158,10.4,10.4,33,0.00,CLR,,0.00,WeatherDisplay:10.37,2013-03-30 15:40:00,
2013-03-30 17:44:00,71.2,41.4,29.62,SE,135,6.9,6.9,34,0.00,CLR,,0.00,WeatherDisplay:10.37,2013-03-30 15:44:00,
2013-03-30 17:45:00,71.1,41.3,29.62,ESE,112,10.2,10.2,34,0.00,CLR,,0.00,WeatherDisplay:10.37,2013-03-30 15:45:00,
2013-03-30 17:49:00,70.7,40.9,29.62,ENE,68,9.2,9.2,34,0.00,CLR,,0.00,WeatherDisplay:10.37,2013-03-30 15:49:00,
2013-03-30 17:50:00,70.5,40.8,29.62,SSE,158,12.7,12.7,34,0.00,CLR,,0.00,WeatherDisplay:10.37,2013-03-30 15:50:00,
2013-03-30 17:51:00,70.3,40.6,29.62,SE,135,12.7,12.7,34,0.00,CLR,,0.00,WeatherDisplay:10.37,2013-03-30 15:51:00,
2013-03-30 17:54:00,70.3,40.6,29.59,SSE,158,4.6,4.6,34,0.00,CLR,,0.00,WeatherDisplay:10.37,2013-03-30 15:54:00,
2013-03-30 17:55:00,70.3,41.4,29.59,SSE,158,4.6,4.6,35,0.00,CLR,,0.00,WeatherDisplay:10.37,2013-03-30 15:55:00,
2013-03-30 17:56:00,70.3,41.4,29.59,SSW,202,4.6,4.6,35,0.00,CLR,,0.00,WeatherDisplay:10.37,2013-03-30 15:56:00,
2013-03-30 17:59:00,70.2,41.2,29.59,South,180,5.8,5.8,35,0.00,CLR,,0.00,WeatherDisplay:10.37,2013-03-30 15:59:00,
2013-03-30 18:00:00,70.0,41.1,29.59,SSE,158,5.8,5.8,35,0.00,CLR,,0.00,WeatherDisplay:10.37,2013-03-30 16:00:00,
2013-03-30 18:02:00,69.8,40.9,29.59,South,180,10.4,10.4,35,0.00,CLR,,0.00,WeatherDisplay:10.37,2013-03-30 16:02:00,
2013-03-30 18:04:00,69.6,41.5,29.59,SE,135,9.2,9.2,36,0.00,CLR,,0.00,WeatherDisplay:10.37,2013-03-30 16:04:00,
2013-03-30 18:05:00,69.6,41.5,29.59,South,180,10.4,10.4,36,0.00,CLR,,0.00,WeatherDisplay:10.37,2013-03-30 16:05:00,
2013-03-30 18:07:00,69.4,40.6,29.59,SSE,158,3.6,3.6,35,0.00,CLR,,0.00,WeatherDisplay:10.37,2013-03-30 16:07:00,
2013-03-30 18:09:00,69.4,41.3,29.62,SSW,202,5.8,5.8,36,0.00,CLR,,0.00,WeatherDisplay:10.37,2013-03-30 16:09:00,
2013-03-30 18:10:00,69.4,41.3,29.62,SSW,202,3.5,3.5,36,0.00,CLR,,0.00,WeatherDisplay:10.37,2013-03-30 16:10:00,
2013-03-30 18:11:00,69.4,41.3,29.62,SSE,158,3.8,3.8,36,0.00,CLR,,0.00,WeatherDisplay:10.37,2013-03-30 16:11:00,
2013-03-30 18:13:00,69.3,41.2,29.62,East,90,4.6,4.6,36,0.00,CLR,,0.00,WeatherDisplay:10.37,2013-03-30 16:13:00,
2013-03-30 18:14:00,69.3,41.2,29.62,SSE,158,4.9,4.9,36,0.00,CLR,,0.00,WeatherDisplay:10.37,2013-03-30 16:14:00,
2013-03-30 18:15:00,69.3,41.2,29.62,ESE,112,4.6,4.6,36,0.00,CLR,,0.00,WeatherDisplay:10.37,2013-03-30 16:15:00,
2013-03-30 18:17:00,69.3,41.2,29.62,ESE,112,5.8,5.8,36,0.00,CLR,,0.00,WeatherDisplay:10.37,2013-03-30 16:17:00,
2013-03-30 18:18:00,69.1,41.0,29.62,South,180,10.4,10.4,36,0.00,CLR,,0.00,WeatherDisplay:10.37,2013-03-30 16:18:00,
2013-03-30 18:19:00,69.1,41.0,29.62,SSE,158,5.6,5.6,36,0.00,CLR,,0.00,WeatherDisplay:10.37,2013-03-30 16:19:00,
2013-03-30 18:21:00,69.1,41.0,29.62,ESE,112,5.8,5.8,36,0.00,CLR,,0.00,WeatherDisplay:10.37,2013-03-30 16:21:00,
2013-03-30 18:22:00,68.9,40.8,29.62,South,180,5.8,5.8,36,0.00,CLR,,0.00,WeatherDisplay:10.37,2013-03-30 16:22:00,
2013-03-30 18:23:00,68.9,40.8,29.62,ESE,112,5.8,5.8,36,0.00,CLR,,0.00,WeatherDisplay:10.37,2013-03-30 16:23:00,
2013-03-30 18:25:00,68.9,40.8,29.62,SSE,152,2.0,6.0,36,0.00,CLR,,0.00,WeatherDisplay:10.37,2013-03-30 16:25:00,
2013-03-30 18:26:00,68.7,41.4,29.62,SSE,158,6.9,6.9,37,0.00,CLR,,0.00,WeatherDisplay:10.37,2013-03-30 16:26:00,
2013-03-30 18:27:00,68.7,41.4,29.62,SSE,158,9.2,9.2,37,0.00,CLR,,0.00,WeatherDisplay:10.37,2013-03-30 16:27:00,
2013-03-30 18:28:00,68.5,41.2,29.62,SSE,158,6.9,6.9,37,0.00,CLR,,0.00,WeatherDisplay:10.37,2013-03-30 16:28:00,
2013-03-30 18:30:00,68.5,41.2,29.62,South,180,4.7,4.7,37,0.00,CLR,,0.00,WeatherDisplay:10.37,2013-03-30 16:30:00,
2013-03-30 18:33:00,68.4,41.1,29.62,SSE,158,6.9,6.9,37,0.00,CLR,,0.00,WeatherDisplay:10.37,2013-03-30 16:33:00,
2013-03-30 18:35:00,68.3,41.7,29.62,SSE,161,3.0,7.0,38,0.00,CLR,,0.00,WeatherDisplay:10.37,2013-03-30 16:35:00,
2013-03-30 18:38:00,68.0,41.4,29.62,ESE,112,2.3,2.3,38,0.00,CLR,,0.00,WeatherDisplay:10.37,2013-03-30 16:38:00,
2013-03-30 18:39:00,68.0,41.4,29.62,East,90,2.9,2.9,38,0.00,CLR,,0.00,WeatherDisplay:10.37,2013-03-30 16:39:00,
2013-03-30 18:40:00,68.0,41.4,29.62,ESE,112,2.4,2.4,38,0.00,CLR,,0.00,WeatherDisplay:10.37,2013-03-30 16:40:00,
2013-03-30 18:43:00,67.8,41.3,29.62,SSE,158,5.4,5.4,38,0.00,CLR,,0.00,WeatherDisplay:10.37,2013-03-30 16:43:00,
2013-03-30 18:44:00,67.8,41.3,29.62,SSE,158,4.6,4.6,38,0.00,CLR,,0.00,WeatherDisplay:10.37,2013-03-30 16:44:00,
2013-03-30 18:45:00,67.8,41.3,29.62,SSW,202,3.5,3.5,38,0.00,CLR,,0.00,WeatherDisplay:10.37,2013-03-30 16:45:00,
2013-03-30 18:48:00,67.6,41.1,29.62,ESE,112,10.4,10.4,38,0.00,CLR,,0.00,WeatherDisplay:10.37,2013-03-30 16:48:00,
2013-03-30 18:49:00,67.6,41.1,29.62,SSE,158,10.4,10.4,38,0.00,CLR,,0.00,WeatherDisplay:10.37,2013-03-30 16:49:00,
2013-03-30 18:50:00,67.6,41.1,29.62,SSW,202,8.1,8.1,38,0.00,CLR,,0.00,WeatherDisplay:10.37,2013-03-30 16:50:00,
2013-03-30 18:53:00,67.6,41.1,29.62,ESE,112,4.6,0.0,38,0.00,CLR,,0.00,WeatherDisplay:10.37,2013-03-30 16:53:00,
2013-03-30 18:54:00,67.6,41.1,29.62,ENE,68,4.6,0.0,38,0.00,CLR,,0.00,WeatherDisplay:10.37,2013-03-30 16:54:00,
2013-03-30 18:56:00,67.5,41.0,29.62,SE,135,3.5,3.5,38,0.00,CLR,,0.00,WeatherDisplay:10.37,2013-03-30 16:56:00,
2013-03-30 18:58:00,67.5,41.0,29.62,ESE,112,4.6,4.6,38,0.00,CLR,,0.00,WeatherDisplay:10.37,2013-03-30 16:58:00,
2013-03-30 18:59:00,67.5,41.0,29.62,SE,135,4.6,4.6,38,0.00,CLR,,0.00,WeatherDisplay:10.37,2013-03-30 16:59:00,
2013-03-30 19:01:00,67.5,41.0,29.62,ENE,68,10.4,10.4,38,0.00,CLR,,0.00,WeatherDisplay:10.37,2013-03-30 17:01:00,
2013-03-30 19:03:00,67.3,40.8,29.62,NNE,22,4.6,4.6,38,0.00,CLR,,0.00,WeatherDisplay:10.37,2013-03-30 17:03:00,
2013-03-30 19:04:00,67.3,40.8,29.62,ESE,112,8.1,8.1,38,0.00,CLR,,0.00,WeatherDisplay:10.37,2013-03-30 17:04:00,
2013-03-30 19:07:00,67.3,40.8,29.62,SE,135,8.1,8.1,38,0.00,CLR,,0.00,WeatherDisplay:10.37,2013-03-30 17:07:00,
2013-03-30 19:08:00,67.3,40.8,29.62,SSE,158,4.6,4.6,38,0.00,CLR,,0.00,WeatherDisplay:10.37,2013-03-30 17:08:00,
2013-03-30 19:09:00,67.3,40.8,29.62,SSE,158,4.6,4.6,38,0.00,CLR,,0.00,WeatherDisplay:10.37,2013-03-30 17:09:00,
2013-03-30 19:13:00,67.1,40.6,29.62,SE,135,10.4,10.4,38,0.00,CLR,,0.00,WeatherDisplay:10.37,2013-03-30 17:13:00,
2013-03-30 19:14:00,67.1,40.6,29.62,SE,135,10.4,10.4,38,0.00,CLR,,0.00,WeatherDisplay:10.37,2013-03-30 17:14:00,
2013-03-30 19:15:00,67.1,40.6,29.62,SSE,158,4.6,4.6,38,0.00,CLR,,0.00,WeatherDisplay:10.37,2013-03-30 17:15:00,
2013-03-30 19:18:00,67.1,40.6,29.62,SSE,158,4.9,4.9,38,0.00,CLR,,0.00,WeatherDisplay:10.37,2013-03-30 17:18:00,
2013-03-30 19:19:00,67.1,40.6,29.62,SSE,158,3.5,3.5,38,0.00,CLR,,0.00,WeatherDisplay:10.37,2013-03-30 17:19:00,
2013-03-30 19:20:00,66.9,40.5,29.62,SSE,158,4.6,4.6,38,0.00,CLR,,0.00,WeatherDisplay:10.37,2013-03-30 17:20:00,
2013-03-30 19:24:00,66.9,41.1,29.62,SSW,202,4.6,4.6,39,0.00,CLR,,0.00,WeatherDisplay:10.37,2013-03-30 17:24:00,
2013-03-30 19:25:00,66.9,41.8,29.62,SSE,158,4.3,4.3,40,0.00,CLR,,0.00,WeatherDisplay:10.37,2013-03-30 17:25:00,
2013-03-30 19:29:00,66.7,41.0,29.62,SE,135,5.8,5.8,39,0.00,CLR,,0.00,WeatherDisplay:10.37,2013-03-30 17:29:00,
2013-03-30 19:30:00,66.7,41.0,29.62,SSE,158,5.8,5.8,39,0.00,CLR,,0.00,WeatherDisplay:10.37,2013-03-30 17:30:00,
2013-03-30 19:34:00,66.7,41.0,29.62,South,180,7.8,7.8,39,0.00,CLR,,0.00,WeatherDisplay:10.37,2013-03-30 17:34:00,
2013-03-30 19:35:00,66.7,41.0,29.62,SSE,158,8.1,8.1,39,0.00,CLR,,0.00,WeatherDisplay:10.37,2013-03-30 17:35:00,
2013-03-30 19:39:00,66.7,41.0,29.62,SSE,158,6.9,6.9,39,0.00,CLR,,0.00,WeatherDisplay:10.37,2013-03-30 17:39:00,
2013-03-30 19:40:00,66.7,41.0,29.62,SSE,158,9.2,9.2,39,0.00,CLR,,0.00,WeatherDisplay:10.37,2013-03-30 17:40:00,
2013-03-30 19:41:00,66.7,41.0,29.62,SSE,158,9.8,9.8,39,0.00,CLR,,0.00,WeatherDisplay:10.37,2013-03-30 17:41:00,
2013-03-30 19:44:00,66.7,41.0,29.62,ESE,112,6.9,6.9,39,0.00,CLR,,0.00,WeatherDisplay:10.37,2013-03-30 17:44:00,
2013-03-30 19:46:00,66.7,41.0,29.62,SE,135,5.4,5.4,39,0.00,CLR,,0.00,WeatherDisplay:10.37,2013-03-30 17:46:00,
2013-03-30 19:49:00,66.7,41.0,29.62,SSE,158,5.9,5.9,39,0.00,CLR,,0.00,WeatherDisplay:10.37,2013-03-30 17:49:00,
2013-03-30 19:50:00,66.7,40.3,29.62,SSE,158,7.6,7.6,38,0.00,CLR,,0.00,WeatherDisplay:10.37,2013-03-30 17:50:00,
2013-03-30 19:52:00,66.7,41.0,29.62,SE,135,8.7,8.7,39,0.00,CLR,,0.00,WeatherDisplay:10.37,2013-03-30 17:52:00,
2013-03-30 19:53:00,66.7,41.0,29.62,ESE,112,9.2,9.2,39,0.00,CLR,,0.00,WeatherDisplay:10.37,2013-03-30 17:53:00,
2013-03-30 19:54:00,66.7,41.0,29.62,SSE,158,8.7,8.7,39,0.00,CLR,,0.00,WeatherDisplay:10.37,2013-03-30 17:54:00,
2013-03-30 19:55:00,66.7,41.0,29.62,SSW,202,11.5,11.5,39,0.00,CLR,,0.00,WeatherDisplay:10.37,2013-03-30 17:55:00,
2013-03-30 19:57:00,66.7,41.0,29.62,SSE,158,4.6,4.6,39,0.00,CLR,,0.00,WeatherDisplay:10.37,2013-03-30 17:57:00,
2013-03-30 19:58:00,66.7,41.0,29.62,SSE,158,5.4,5.4,39,0.00,CLR,,0.00,WeatherDisplay:10.37,2013-03-30 17:58:00,
2013-03-30 19:59:00,66.7,41.0,29.62,SSE,158,9.2,9.2,39,0.00,CLR,,0.00,WeatherDisplay:10.37,2013-03-30 17:59:00,
2013-03-30 20:00:00,66.7,41.6,29.62,ESE,112,9.2,9.2,40,0.00,CLR,,0.00,WeatherDisplay:10.37,2013-03-30 18:00:00,
2013-03-30 20:02:00,66.6,41.5,29.62,South,180,5.6,5.6,40,0.00,CLR,,0.00,WeatherDisplay:10.37,2013-03-30 18:02:00,
2013-03-30 20:04:00,66.6,41.5,29.62,SSE,158,5.8,5.8,40,0.00,CLR,,0.00,WeatherDisplay:10.37,2013-03-30 18:04:00,
2013-03-30 20:05:00,66.6,42.1,29.62,SSE,158,5.6,5.6,41,0.00,CLR,,0.00,WeatherDisplay:10.37,2013-03-30 18:05:00,
2013-03-30 20:07:00,66.6,42.1,29.62,SE,135,8.1,8.1,41,0.00,CLR,,0.00,WeatherDisplay:10.37,2013-03-30 18:07:00,
2013-03-30 20:09:00,66.6,42.1,29.62,SSE,158,5.8,5.8,41,0.00,CLR,,0.00,WeatherDisplay:10.37,2013-03-30 18:09:00,
2013-03-30 20:10:00,66.4,42.6,29.62,ENE,68,5.8,5.8,42,0.00,CLR,,0.00,WeatherDisplay:10.37,2013-03-30 18:10:00,
2013-03-30 20:12:00,66.2,43.0,29.62,SE,135,7.8,7.8,43,0.00,CLR,,0.00,WeatherDisplay:10.37,2013-03-30 18:12:00,
2013-03-30 20:14:00,66.2,43.0,29.62,SSE,158,8.1,8.1,43,0.00,CLR,,0.00,WeatherDisplay:10.37,2013-03-30 18:14:00,
2013-03-30 20:15:00,66.2,43.6,29.62,ENE,68,5.8,5.8,44,0.00,CLR,,0.00,WeatherDisplay:10.37,2013-03-30 18:15:00,
2013-03-30 20:18:00,66.0,43.5,29.62,East,90,5.9,5.9,44,0.00,CLR,,0.00,WeatherDisplay:10.37,2013-03-30 18:18:00,
2013-03-30 20:19:00,66.0,43.5,29.62,SSE,158,11.5,11.5,44,0.00,CLR,,0.00,WeatherDisplay:10.37,2013-03-30 18:19:00,
2013-03-30 20:20:00,66.0,44.1,29.62,SE,135,11.5,11.5,45,0.00,CLR,,0.00,WeatherDisplay:10.37,2013-03-30 18:20:00,
2013-03-30 20:23:00,65.8,43.9,29.62,SE,135,8.1,8.1,45,0.00,CLR,,0.00,WeatherDisplay:10.37,2013-03-30 18:23:00,
2013-03-30 20:24:00,65.8,43.9,29.62,SE,135,5.8,5.8,45,0.00,CLR,,0.00,WeatherDisplay:10.37,2013-03-30 18:24:00,
2013-03-30 20:25:00,65.8,43.9,29.62,ESE,112,5.8,5.8,45,0.00,CLR,,0.00,WeatherDisplay:10.37,2013-03-30 18:25:00,
2013-03-30 20:28:00,65.7,43.7,29.62,ESE,112,4.6,4.6,45,0.00,CLR,,0.00,WeatherDisplay:10.37,2013-03-30 18:28:00,
2013-03-30 20:29:00,65.7,43.7,29.62,ESE,112,4.6,4.6,45,0.00,CLR,,0.00,WeatherDisplay:10.37,2013-03-30 18:29:00,
2013-03-30 20:30:00,65.7,43.7,29.62,ESE,112,5.9,5.9,45,0.00,CLR,,0.00,WeatherDisplay:10.37,2013-03-30 18:30:00,
2013-03-30 20:33:00,65.7,44.3,29.62,ENE,68,5.8,5.8,46,0.00,CLR,,0.00,WeatherDisplay:10.37,2013-03-30 18:33:00,
2013-03-30 20:34:00,65.5,44.1,29.62,East,90,2.9,2.9,46,0.00,CLR,,0.00,WeatherDisplay:10.37,2013-03-30 18:34:00,
2013-03-30 20:35:00,65.5,44.1,29.62,South,180,4.0,4.0,46,0.00,CLR,,0.00,WeatherDisplay:10.37,2013-03-30 18:35:00,
2013-03-30 20:38:00,65.5,44.1,29.62,SSE,158,11.5,11.5,46,0.00,CLR,,0.00,WeatherDisplay:10.37,2013-03-30 18:38:00,
2013-03-30 20:40:00,65.5,44.1,29.62,SSE,158,6.9,6.9,46,0.00,CLR,,0.00,WeatherDisplay:10.37,2013-03-30 18:40:00,
2013-03-30 20:43:00,65.3,44.5,29.62,East,90,5.8,5.8,47,0.00,CLR,,0.00,WeatherDisplay:10.37,2013-03-30 18:43:00,
2013-03-30 20:45:00,65.3,44.5,29.62,ESE,112,7.1,7.1,47,0.00,CLR,,0.00,WeatherDisplay:10.37,2013-03-30 18:45:00,
2013-03-30 20:48:00,65.1,44.4,29.62,SE,135,8.1,8.1,47,0.00,CLR,,0.00,WeatherDisplay:10.37,2013-03-30 18:48:00,
2013-03-30 20:50:00,65.3,44.5,29.62,SSE,158,5.8,5.8,47,0.00,CLR,,0.00,WeatherDisplay:10.37,2013-03-30 18:50:00,
2013-03-30 20:51:00,65.3,45.1,29.62,SSE,158,8.7,8.7,48,0.00,CLR,,0.00,WeatherDisplay:10.37,2013-03-30 18:51:00,
2013-03-30 20:53:00,65.3,44.5,29.62,SE,135,12.1,12.1,47,0.00,CLR,,0.00,WeatherDisplay:10.37,2013-03-30 18:53:00,
2013-03-30 20:55:00,65.3,44.5,29.62,SSE,158,5.8,5.8,47,0.00,CLR,,0.00,WeatherDisplay:10.37,2013-03-30 18:55:00,
2013-03-30 20:56:00,65.3,44.5,29.62,SSE,158,6.4,6.4,47,0.00,CLR,,0.00,WeatherDisplay:10.37,2013-03-30 18:56:00,
2013-03-30 20:58:00,65.3,44.5,29.62,SSE,158,5.8,5.8,47,0.00,CLR,,0.00,WeatherDisplay:10.37,2013-03-30 18:58:00,
2013-03-30 21:00:00,65.3,44.5,29.62,ESE,112,8.1,8.1,47,0.00,CLR,,0.00,WeatherDisplay:10.37,2013-03-30 19:00:00,
2013-03-30 21:01:00,65.3,44.5,29.62,East,90,3.5,3.5,47,0.00,CLR,,0.00,WeatherDisplay:10.37,2013-03-30 19:01:00,
2013-03-30 21:02:00,65.3,44.5,29.62,East,90,3.5,3.5,47,0.00,CLR,,0.00,WeatherDisplay:10.37,2013-03-30 19:02:00,
2013-03-30 21:03:00,65.3,44.0,29.62,ESE,112,6.2,6.2,46,0.00,CLR,,0.00,WeatherDisplay:10.37,2013-03-30 19:03:00,
2013-03-30 21:05:00,65.3,44.0,29.62,ESE,112,10.4,10.4,46,0.00,CLR,,0.00,WeatherDisplay:10.37,2013-03-30 19:05:00,
2013-03-30 21:07:00,65.5,44.1,29.62,East,90,5.8,5.8,46,0.00,CLR,,0.00,WeatherDisplay:10.37,2013-03-30 19:07:00,
2013-03-30 21:09:00,65.5,44.1,29.62,SE,135,3.8,3.8,46,0.00,CLR,,0.00,WeatherDisplay:10.37,2013-03-30 19:09:00,
2013-03-30 21:10:00,65.5,44.1,29.62,ENE,68,8.1,8.1,46,0.00,CLR,,0.00,WeatherDisplay:10.37,2013-03-30 19:10:00,
2013-03-30 21:12:00,65.5,44.1,29.62,East,90,5.8,5.8,46,0.00,CLR,,0.00,WeatherDisplay:10.37,2013-03-30 19:12:00,
2013-03-30 21:14:00,65.5,43.6,29.62,SSE,158,6.9,6.9,45,0.00,CLR,,0.00,WeatherDisplay:10.37,2013-03-30 19:14:00,
2013-03-30 21:16:00,65.5,43.6,29.62,SE,135,4.6,4.6,45,0.00,CLR,,0.00,WeatherDisplay:10.37,2013-03-30 19:16:00,
2013-03-30 21:17:00,65.5,43.6,29.62,East,90,4.6,4.6,45,0.00,CLR,,0.00,WeatherDisplay:10.37,2013-03-30 19:17:00,
2013-03-30 21:19:00,65.5,43.6,29.62,ESE,112,8.1,8.1,45,0.00,CLR,,0.00,WeatherDisplay:10.37,2013-03-30 19:19:00,
2013-03-30 21:21:00,65.5,43.6,29.62,ESE,112,5.8,5.8,45,0.00,CLR,,0.00,WeatherDisplay:10.37,2013-03-30 19:21:00,
2013-03-30 21:22:00,65.5,43.6,29.62,SSE,158,6.9,6.9,45,0.00,CLR,,0.00,WeatherDisplay:10.37,2013-03-30 19:22:00,
2013-03-30 21:24:00,65.5,43.6,29.62,SE,135,9.2,9.2,45,0.00,CLR,,0.00,WeatherDisplay:10.37,2013-03-30 19:24:00,
2013-03-30 21:26:00,65.7,43.7,29.62,SSE,158,6.9,6.9,45,0.00,CLR,,0.00,WeatherDisplay:10.37,2013-03-30 19:26:00,
2013-03-30 21:27:00,65.7,43.7,29.62,SE,135,12.7,12.7,45,0.00,CLR,,0.00,WeatherDisplay:10.37,2013-03-30 19:27:00,
2013-03-30 21:28:00,65.7,43.7,29.62,SSE,158,12.7,12.7,45,0.00,CLR,,0.00,WeatherDisplay:10.37,2013-03-30 19:28:00,
2013-03-30 21:29:00,65.5,43.6,29.62,NNW,338,6.9,6.9,45,0.00,CLR,,0.00,WeatherDisplay:10.37,2013-03-30 19:29:00,
2013-03-30 21:32:00,65.5,43.6,29.62,WSW,248,8.1,8.1,45,0.00,CLR,,0.00,WeatherDisplay:10.37,2013-03-30 19:32:00,
2013-03-30 21:33:00,65.5,43.6,29.62,NNE,22,9.7,9.7,45,0.00,CLR,,0.00,WeatherDisplay:10.37,2013-03-30 19:33:00,
2013-03-30 21:35:00,65.5,43.6,29.62,SE,135,9.2,9.2,45,0.00,CLR,,0.00,WeatherDisplay:10.37,2013-03-30 19:35:00,
2013-03-30 21:37:00,65.5,43.6,29.62,SE,135,9.2,9.2,45,0.00,CLR,,0.00,WeatherDisplay:10.37,2013-03-30 19:37:00,
2013-03-30 21:38:00,65.5,43.6,29.62,ENE,68,6.9,7.4,45,0.00,CLR,,0.00,WeatherDisplay:10.37,2013-03-30 19:38:00,
2013-03-30 21:40:00,65.3,43.4,29.65,SE,135,7.4,7.4,45,0.00,CLR,,0.00,WeatherDisplay:10.37,2013-03-30 19:40:00,
2013-03-30 21:42:00,65.3,43.4,29.65,SSE,158,5.8,5.8,45,0.00,CLR,,0.00,WeatherDisplay:10.37,2013-03-30 19:42:00,
2013-03-30 21:43:00,65.1,43.2,29.65,SE,135,3.5,3.5,45,0.00,CLR,,0.00,WeatherDisplay:10.37,2013-03-30 19:43:00,
2013-03-30 21:45:00,65.1,43.2,29.65,SSE,158,10.4,10.4,45,0.00,CLR,,0.00,WeatherDisplay:10.37,2013-03-30 19:45:00,
2013-03-30 21:47:00,65.1,43.2,29.65,SSE,158,8.5,8.5,45,0.00,CLR,,0.00,WeatherDisplay:10.37,2013-03-30 19:47:00,
2013-03-30 21:48:00,65.1,43.2,29.65,South,180,10.4,10.4,45,0.00,CLR,,0.00,WeatherDisplay:10.37,2013-03-30 19:48:00,
2013-03-30 21:50:00,65.1,43.2,29.65,SSE,158,8.1,8.1,45,0.00,CLR,,0.00,WeatherDisplay:10.37,2013-03-30 19:50:00,
2013-03-30 21:52:00,65.1,43.2,29.65,SE,135,8.1,8.1,45,0.00,CLR,,0.00,WeatherDisplay:10.37,2013-03-30 19:52:00,
2013-03-30 21:53:00,65.1,43.2,29.65,East,90,8.1,8.1,45,0.00,CLR,,0.00,WeatherDisplay:10.37,2013-03-30 19:53:00,
2013-03-30 21:55:00,65.1,43.2,29.62,SE,135,3.5,3.5,45,0.00,CLR,,0.00,WeatherDisplay:10.37,2013-03-30 19:55:00,
2013-03-30 21:58:00,64.9,43.1,29.62,ENE,68,10.4,10.4,45,0.00,CLR,,0.00,WeatherDisplay:10.37,2013-03-30 19:58:00,
2013-03-30 22:00:00,64.9,43.1,29.62,SSE,158,8.1,8.1,45,0.00,CLR,,0.00,WeatherDisplay:10.37,2013-03-30 20:00:00,
2013-03-30 22:03:00,64.8,42.9,29.62,SSE,158,10.4,10.4,45,0.00,CLR,,0.00,WeatherDisplay:10.37,2013-03-30 20:03:00,
2013-03-30 22:06:00,64.8,42.9,29.62,SSE,158,4.6,4.6,45,0.00,CLR,,0.00,WeatherDisplay:10.37,2013-03-30 20:06:00,
2013-03-30 22:08:00,64.8,42.9,29.62,SE,135,9.2,9.2,45,0.00,CLR,,0.00,WeatherDisplay:10.37,2013-03-30 20:08:00,
2013-03-30 22:09:00,64.8,42.9,29.62,South,180,9.2,9.2,45,0.00,CLR,,0.00,WeatherDisplay:10.37,2013-03-30 20:09:00,
2013-03-30 22:11:00,64.8,42.9,29.62,SE,135,6.9,6.9,45,0.00,CLR,,0.00,WeatherDisplay:10.37,2013-03-30 20:11:00,
2013-03-30 22:13:00,64.8,42.9,29.62,ESE,112,9.2,9.2,45,0.00,CLR,,0.00,WeatherDisplay:10.37,2013-03-30 20:13:00,
2013-03-30 22:14:00,64.6,42.7,29.62,ENE,68,9.2,9.2,45,0.00,CLR,,0.00,WeatherDisplay:10.37,2013-03-30 20:14:00,
2013-03-30 22:16:00,64.6,42.7,29.62,East,90,10.9,10.9,45,0.00,CLR,,0.00,WeatherDisplay:10.37,2013-03-30 20:16:00,
2013-03-30 22:18:00,64.6,42.7,29.62,ESE,112,6.9,6.9,45,0.00,CLR,,0.00,WeatherDisplay:10.37,2013-03-30 20:18:00,
2013-03-30 22:19:00,64.6,42.7,29.62,SSE,158,6.9,6.9,45,0.00,CLR,,0.00,WeatherDisplay:10.37,2013-03-30 20:19:00,
2013-03-30 22:21:00,64.6,42.7,29.62,SE,135,5.8,5.8,45,0.00,CLR,,0.00,WeatherDisplay:10.37,2013-03-30 20:21:00,
2013-03-30 22:23:00,64.6,42.7,29.62,SSE,158,6.9,6.9,45,0.00,CLR,,0.00,WeatherDisplay:10.37,2013-03-30 20:23:00,
2013-03-30 22:24:00,64.6,42.7,29.62,ESE,112,6.9,6.9,45,0.00,CLR,,0.00,WeatherDisplay:10.37,2013-03-30 20:24:00,
2013-03-30 22:26:00,64.4,42.6,29.62,ENE,68,3.5,3.5,45,0.00,CLR,,0.00,WeatherDisplay:10.37,2013-03-30 20:26:00,
2013-03-30 22:28:00,64.4,42.6,29.62,South,180,4.3,4.3,45,0.00,CLR,,0.00,WeatherDisplay:10.37,2013-03-30 20:28:00,
2013-03-30 22:29:00,64.4,42.6,29.62,South,180,3.5,3.5,45,0.00,CLR,,0.00,WeatherDisplay:10.37,2013-03-30 20:29:00,
2013-03-30 22:32:00,64.4,42.6,29.62,ESE,112,8.1,8.1,45,0.00,CLR,,0.00,WeatherDisplay:10.37,2013-03-30 20:32:00,
2013-03-30 22:33:00,64.4,42.6,29.62,SSE,158,5.8,5.8,45,0.00,CLR,,0.00,WeatherDisplay:10.37,2013-03-30 20:33:00,
2013-03-30 22:34:00,64.4,42.6,29.62,ESE,112,5.8,5.8,45,0.00,CLR,,0.00,WeatherDisplay:10.37,2013-03-30 20:34:00,
2013-03-30 22:37:00,64.4,42.6,29.62,SE,135,8.1,8.1,45,0.00,CLR,,0.00,WeatherDisplay:10.37,2013-03-30 20:37:00,
2013-03-30 22:38:00,64.4,43.2,29.62,SSE,158,10.0,10.0,46,0.00,CLR,,0.00,WeatherDisplay:10.37,2013-03-30 20:38:00,
2013-03-30 22:39:00,64.4,43.2,29.62,SSE,158,5.8,5.8,46,0.00,CLR,,0.00,WeatherDisplay:10.37,2013-03-30 20:39:00,
2013-03-30 22:42:00,64.4,43.2,29.62,SSE,158,4.6,4.6,46,0.00,CLR,,0.00,WeatherDisplay:10.37,2013-03-30 20:42:00,
2013-03-30 22:43:00,64.2,43.0,29.62,SSE,158,4.6,4.6,46,0.00,CLR,,0.00,WeatherDisplay:10.37,2013-03-30 20:43:00,
2013-03-30 22:44:00,64.2,43.0,29.62,East,90,4.6,4.6,46,0.00,CLR,,0.00,WeatherDisplay:10.37,2013-03-30 20:44:00,
2013-03-30 22:47:00,64.2,43.0,29.62,SSE,158,3.5,3.5,46,0.00,CLR,,0.00,WeatherDisplay:10.37,2013-03-30 20:47:00,
2013-03-30 22:49:00,64.2,43.0,29.62,SSE,158,8.1,8.1,46,0.00,CLR,,0.00,WeatherDisplay:10.37,2013-03-30 20:49:00,
2013-03-30 22:53:00,64.0,42.8,29.62,SSE,158,3.6,3.6,46,0.00,CLR,,0.00,WeatherDisplay:10.37,2013-03-30 20:53:00,
2013-03-30 22:54:00,64.0,42.8,29.62,SSE,158,5.6,5.6,46,0.00,CLR,,0.00,WeatherDisplay:10.37,2013-03-30 20:54:00,
2013-03-30 22:58:00,64.0,42.8,29.59,SSE,158,4.6,4.6,46,0.00,CLR,,0.00,WeatherDisplay:10.37,2013-03-30 20:58:00,
2013-03-30 22:59:00,64.0,42.8,29.59,East,90,4.6,4.6,46,0.00,CLR,,0.00,WeatherDisplay:10.37,2013-03-30 20:59:00,
2013-03-30 23:03:00,64.0,43.4,29.59,SE,135,9.7,9.7,47,0.00,CLR,,0.00,WeatherDisplay:10.37,2013-03-30 21:03:00,
2013-03-30 23:04:00,64.0,43.4,29.59,SSE,158,5.8,5.8,47,0.00,CLR,,0.00,WeatherDisplay:10.37,2013-03-30 21:04:00,
2013-03-30 23:08:00,64.2,43.0,29.59,SSE,158,9.2,9.2,46,0.00,CLR,,0.00,WeatherDisplay:10.37,2013-03-30 21:08:00,
2013-03-30 23:09:00,64.2,43.0,29.65,SSE,158,9.2,9.2,46,0.00,CLR,,0.00,WeatherDisplay:10.37,2013-03-30 21:09:00,
2013-03-30 23:10:00,64.2,43.0,29.65,South,180,9.2,9.2,46,0.00,CLR,,0.00,WeatherDisplay:10.37,2013-03-30 21:10:00,
2013-03-30 23:14:00,64.0,42.8,29.65,SSE,158,4.6,4.6,46,0.00,CLR,,0.00,WeatherDisplay:10.37,2013-03-30 21:14:00,
2013-03-30 23:15:00,64.2,43.0,29.65,East,90,5.8,5.8,46,0.00,CLR,,0.00,WeatherDisplay:10.37,2013-03-30 21:15:00,
2013-03-30 23:19:00,64.2,43.0,29.65,SSW,202,4.6,4.6,46,0.00,CLR,,0.00,WeatherDisplay:10.37,2013-03-30 21:19:00,
2013-03-30 23:20:00,64.2,43.0,29.65,SSE,161,2.0,6.0,46,0.00,CLR,,0.00,WeatherDisplay:10.37,2013-03-30 21:20:00,
2013-03-30 23:24:00,64.0,42.8,29.62,SSE,158,9.2,9.2,46,0.00,CLR,,0.00,WeatherDisplay:10.37,2013-03-30 21:24:00,
2013-03-30 23:26:00,64.2,43.0,29.62,South,180,6.9,6.9,46,0.00,CLR,,0.00,WeatherDisplay:10.37,2013-03-30 21:26:00,
2013-03-30 23:29:00,64.0,42.8,29.62,SW,225,5.8,5.8,46,0.00,CLR,,0.00,WeatherDisplay:10.37,2013-03-30 21:29:00,
2013-03-30 23:30:00,64.0,42.8,29.62,SSW,202,5.8,5.8,46,0.00,CLR,,0.00,WeatherDisplay:10.37,2013-03-30 21:30:00,
2013-03-30 23:31:00,64.0,42.8,29.62,SSW,202,5.4,5.4,46,0.00,CLR,,0.00,WeatherDisplay:10.37,2013-03-30 21:31:00,
2013-03-30 23:34:00,64.2,43.0,29.62,SSW,202,9.2,9.2,46,0.00,CLR,,0.00,WeatherDisplay:10.37,2013-03-30 21:34:00,
2013-03-30 23:35:00,64.2,43.0,29.62,SSW,202,9.2,9.2,46,0.00,CLR,,0.00,WeatherDisplay:10.37,2013-03-30 21:35:00,
2013-03-30 23:36:00,64.2,43.0,29.62,SSW,202,5.8,5.8,46,0.00,CLR,,0.00,WeatherDisplay:10.37,2013-03-30 21:36:00,
2013-03-30 23:39:00,64.2,43.0,29.62,SSE,158,8.1,8.1,46,0.00,CLR,,0.00,WeatherDisplay:10.37,2013-03-30 21:39:00,
2013-03-30 23:40:00,64.2,43.0,29.62,SE,135,10.2,10.2,46,0.00,CLR,,0.00,WeatherDisplay:10.37,2013-03-30 21:40:00,
2013-03-30 23:42:00,64.2,42.4,29.62,ESE,112,10.2,10.2,45,0.00,CLR,,0.00,WeatherDisplay:10.37,2013-03-30 21:42:00,
2013-03-30 23:44:00,64.4,42.0,29.62,SE,135,5.8,5.8,44,0.00,CLR,,0.00,WeatherDisplay:10.37,2013-03-30 21:44:00,
2013-03-30 23:45:00,64.4,42.0,29.62,SE,135,5.8,5.8,44,0.00,CLR,,0.00,WeatherDisplay:10.37,2013-03-30 21:45:00,
2013-03-30 23:47:00,64.6,42.2,29.62,SSW,202,9.2,9.2,44,0.00,CLR,,0.00,WeatherDisplay:10.37,2013-03-30 21:47:00,
2013-03-30 23:50:00,64.6,42.2,29.62,SSE,158,9.2,9.2,44,0.00,CLR,,0.00,WeatherDisplay:10.37,2013-03-30 21:50:00,
2013-03-30 23:52:00,64.4,42.6,29.62,ESE,112,9.2,9.2,45,0.00,CLR,,0.00,WeatherDisplay:10.37,2013-03-30 21:52:00,
2013-03-30 23:55:00,64.4,42.6,29.59,SE,135,9.2,9.2,45,0.00,CLR,,0.00,WeatherDisplay:10.37,2013-03-30 21:55:00,
2013-03-30 23:57:00,64.6,42.7,29.59,SE,135,8.1,8.1,45,0.00,CLR,,0.00,WeatherDisplay:10.37,2013-03-30 21:57:00,